<?xml version="1.0" encoding="UTF-8" standalone="no" ?>
<gpx xmlns="http://www.topografix.com/GPX/1/1" xmlns:xsi="http://www.w3.org/2001/XMLSchema-instance" xsi:schemaLocation="http://www.topografix.com/GPX/1/1 http://www.topografix.com/GPX/1/1/gpx.xsd" version="1.1" creator="VisuGPX - https://www.visugpx.com">
  <metadata>
    <name>Sucs de Tupernas et de la Lauzière 2</name>
  </metadata>
  <trk>
    <name><![CDATA[10314735-bonnefoy les sucs]]></name>
    <trkseg>
      <trkpt lat="44.8771" lon="4.18473">
        <ele>1385</ele>
        <time>2020-09-03T08:47:22Z</time>
        <extensions>
          <visugpx:TrkExtension xmlns:visugpx="https://www.visugpx.com/editgpx/">
            <visugpx:node>23</visugpx:node>
            </visugpx:TrkExtension>
        </extensions>
      </trkpt>
      <trkpt lat="44.8771" lon="4.18473">
        <ele>1385</ele>
        <time>2020-09-03T08:47:22Z</time>
      </trkpt>
      <trkpt lat="44.8771" lon="4.18473">
        <ele>1385</ele>
        <time>2020-09-03T08:47:22Z</time>
      </trkpt>
      <trkpt lat="44.87701" lon="4.18481">
        <ele>1385</ele>
        <time>2020-09-03T08:47:36Z</time>
      </trkpt>
      <trkpt lat="44.87665" lon="4.18503">
        <ele>1389</ele>
        <time>2020-09-03T08:48:29Z</time>
      </trkpt>
      <trkpt lat="44.87655" lon="4.18512">
        <ele>1390</ele>
        <time>2020-09-03T08:48:44Z</time>
      </trkpt>
      <trkpt lat="44.87625" lon="4.18528">
        <ele>1394</ele>
        <time>2020-09-03T08:49:27Z</time>
      </trkpt>
      <trkpt lat="44.87604" lon="4.18546">
        <ele>1397</ele>
        <time>2020-09-03T08:50:00Z</time>
      </trkpt>
      <trkpt lat="44.87599" lon="4.18558">
        <ele>1399</ele>
        <time>2020-09-03T08:50:13Z</time>
      </trkpt>
      <trkpt lat="44.87584" lon="4.18575">
        <ele>1402</ele>
        <time>2020-09-03T08:50:39Z</time>
      </trkpt>
      <trkpt lat="44.87566" lon="4.18586">
        <ele>1405</ele>
        <time>2020-09-03T08:51:05Z</time>
      </trkpt>
      <trkpt lat="44.87547" lon="4.18603">
        <ele>1409</ele>
        <time>2020-09-03T08:51:35Z</time>
      </trkpt>
      <trkpt lat="44.87529" lon="4.18604">
        <ele>1412</ele>
        <time>2020-09-03T08:51:59Z</time>
      </trkpt>
      <trkpt lat="44.87525" lon="4.18602">
        <ele>1412</ele>
        <time>2020-09-03T08:52:05Z</time>
      </trkpt>
      <trkpt lat="44.87518" lon="4.18605">
        <ele>1413</ele>
        <time>2020-09-03T08:52:14Z</time>
      </trkpt>
      <trkpt lat="44.87506" lon="4.18598">
        <ele>1414</ele>
        <time>2020-09-03T08:52:32Z</time>
      </trkpt>
      <trkpt lat="44.87477" lon="4.18598">
        <ele>1417</ele>
        <time>2020-09-03T08:53:10Z</time>
      </trkpt>
      <trkpt lat="44.87466" lon="4.18605">
        <ele>1419</ele>
        <time>2020-09-03T08:53:27Z</time>
      </trkpt>
      <trkpt lat="44.87448" lon="4.18607">
        <ele>1421</ele>
        <time>2020-09-03T08:53:51Z</time>
      </trkpt>
      <trkpt lat="44.8744" lon="4.18616">
        <ele>1423</ele>
        <time>2020-09-03T08:54:04Z</time>
      </trkpt>
      <trkpt lat="44.87435" lon="4.18618">
        <ele>1424</ele>
        <time>2020-09-03T08:54:11Z</time>
      </trkpt>
      <trkpt lat="44.87427" lon="4.18615">
        <ele>1424</ele>
        <time>2020-09-03T08:54:22Z</time>
      </trkpt>
      <trkpt lat="44.87416" lon="4.18618">
        <ele>1426</ele>
        <time>2020-09-03T08:54:37Z</time>
      </trkpt>
      <trkpt lat="44.87412" lon="4.18614">
        <ele>1425</ele>
        <time>2020-09-03T08:54:44Z</time>
      </trkpt>
      <trkpt lat="44.87404" lon="4.18617">
        <ele>1426</ele>
        <time>2020-09-03T08:54:55Z</time>
      </trkpt>
      <trkpt lat="44.87391" lon="4.18635">
        <ele>1429</ele>
        <time>2020-09-03T08:55:19Z</time>
      </trkpt>
      <trkpt lat="44.87375" lon="4.18644">
        <ele>1431</ele>
        <time>2020-09-03T08:55:42Z</time>
      </trkpt>
      <trkpt lat="44.87373" lon="4.18648">
        <ele>1432</ele>
        <time>2020-09-03T08:55:47Z</time>
      </trkpt>
      <trkpt lat="44.87363" lon="4.18654">
        <ele>1433</ele>
        <time>2020-09-03T08:56:01Z</time>
      </trkpt>
      <trkpt lat="44.87361" lon="4.18653">
        <ele>1433</ele>
        <time>2020-09-03T08:56:04Z</time>
      </trkpt>
      <trkpt lat="44.87352" lon="4.18658">
        <ele>1434</ele>
        <time>2020-09-03T08:56:17Z</time>
      </trkpt>
      <trkpt lat="44.87336" lon="4.18674">
        <ele>1437</ele>
        <time>2020-09-03T08:56:43Z</time>
      </trkpt>
      <trkpt lat="44.87315" lon="4.18687">
        <ele>1439</ele>
        <time>2020-09-03T08:57:14Z</time>
      </trkpt>
      <trkpt lat="44.87299" lon="4.18711">
        <ele>1443</ele>
        <time>2020-09-03T08:57:45Z</time>
      </trkpt>
      <trkpt lat="44.87285" lon="4.18742">
        <ele>1448</ele>
        <time>2020-09-03T08:58:20Z</time>
      </trkpt>
      <trkpt lat="44.8728" lon="4.18741">
        <ele>1448</ele>
        <time>2020-09-03T08:58:26Z</time>
      </trkpt>
      <trkpt lat="44.87237" lon="4.18762">
        <ele>1450</ele>
        <time>2020-09-03T08:59:27Z</time>
      </trkpt>
      <trkpt lat="44.87226" lon="4.1876">
        <ele>1450</ele>
        <time>2020-09-03T08:59:42Z</time>
      </trkpt>
      <trkpt lat="44.87212" lon="4.18747">
        <ele>1448</ele>
        <time>2020-09-03T09:00:04Z</time>
      </trkpt>
      <trkpt lat="44.87195" lon="4.18749">
        <ele>1449</ele>
        <time>2020-09-03T09:00:27Z</time>
      </trkpt>
      <trkpt lat="44.87187" lon="4.18745">
        <ele>1449</ele>
        <time>2020-09-03T09:00:38Z</time>
      </trkpt>
      <trkpt lat="44.87154" lon="4.18751">
        <ele>1452</ele>
        <time>2020-09-03T09:01:23Z</time>
      </trkpt>
      <trkpt lat="44.87151" lon="4.18746">
        <ele>1451</ele>
        <time>2020-09-03T09:01:29Z</time>
      </trkpt>
      <trkpt lat="44.8714" lon="4.1874">
        <ele>1452</ele>
        <time>2020-09-03T09:01:45Z</time>
      </trkpt>
      <trkpt lat="44.87135" lon="4.18738">
        <ele>1452</ele>
        <time>2020-09-03T09:01:52Z</time>
      </trkpt>
      <trkpt lat="44.87128" lon="4.18739">
        <ele>1453</ele>
        <time>2020-09-03T09:02:01Z</time>
      </trkpt>
      <trkpt lat="44.87122" lon="4.18734">
        <ele>1453</ele>
        <time>2020-09-03T09:02:10Z</time>
      </trkpt>
      <trkpt lat="44.87118" lon="4.18734">
        <ele>1454</ele>
        <time>2020-09-03T09:02:16Z</time>
      </trkpt>
      <trkpt lat="44.87115" lon="4.18729">
        <ele>1454</ele>
        <time>2020-09-03T09:02:22Z</time>
      </trkpt>
      <trkpt lat="44.87105" lon="4.18726">
        <ele>1455</ele>
        <time>2020-09-03T09:02:36Z</time>
      </trkpt>
      <trkpt lat="44.87104" lon="4.18723">
        <ele>1455</ele>
        <time>2020-09-03T09:02:39Z</time>
      </trkpt>
      <trkpt lat="44.87089" lon="4.18718">
        <ele>1456</ele>
        <time>2020-09-03T09:02:59Z</time>
      </trkpt>
      <trkpt lat="44.87078" lon="4.18709">
        <ele>1457</ele>
        <time>2020-09-03T09:03:16Z</time>
      </trkpt>
      <trkpt lat="44.87069" lon="4.18707">
        <ele>1457</ele>
        <time>2020-09-03T09:03:28Z</time>
      </trkpt>
      <trkpt lat="44.87059" lon="4.18699">
        <ele>1458</ele>
        <time>2020-09-03T09:03:44Z</time>
      </trkpt>
      <trkpt lat="44.87052" lon="4.18686">
        <ele>1457</ele>
        <time>2020-09-03T09:03:59Z</time>
      </trkpt>
      <trkpt lat="44.87042" lon="4.18682">
        <ele>1458</ele>
        <time>2020-09-03T09:04:13Z</time>
      </trkpt>
      <trkpt lat="44.87023" lon="4.18667">
        <ele>1459</ele>
        <time>2020-09-03T09:04:42Z</time>
      </trkpt>
      <trkpt lat="44.87013" lon="4.18664">
        <ele>1460</ele>
        <time>2020-09-03T09:04:56Z</time>
      </trkpt>
      <trkpt lat="44.87002" lon="4.18657">
        <ele>1460</ele>
        <time>2020-09-03T09:05:12Z</time>
      </trkpt>
      <trkpt lat="44.86979" lon="4.18653">
        <ele>1460</ele>
        <time>2020-09-03T09:05:43Z</time>
      </trkpt>
      <trkpt lat="44.86974" lon="4.18648">
        <ele>1459</ele>
        <time>2020-09-03T09:05:51Z</time>
      </trkpt>
      <trkpt lat="44.86957" lon="4.18639">
        <ele>1458</ele>
        <time>2020-09-03T09:06:15Z</time>
      </trkpt>
      <trkpt lat="44.86953" lon="4.18638">
        <ele>1458</ele>
        <time>2020-09-03T09:06:21Z</time>
      </trkpt>
      <trkpt lat="44.86947" lon="4.18641">
        <ele>1459</ele>
        <time>2020-09-03T09:06:29Z</time>
      </trkpt>
      <trkpt lat="44.86947" lon="4.18643">
        <ele>1459</ele>
        <time>2020-09-03T09:06:31Z</time>
      </trkpt>
      <trkpt lat="44.86944" lon="4.18638">
        <ele>1459</ele>
        <time>2020-09-03T09:06:37Z</time>
      </trkpt>
      <trkpt lat="44.86937" lon="4.18634">
        <ele>1458</ele>
        <time>2020-09-03T09:06:47Z</time>
      </trkpt>
      <trkpt lat="44.86909" lon="4.18634">
        <ele>1458</ele>
        <time>2020-09-03T09:07:25Z</time>
      </trkpt>
      <trkpt lat="44.86866" lon="4.18651">
        <ele>1460</ele>
        <time>2020-09-03T09:08:24Z</time>
      </trkpt>
      <trkpt lat="44.86849" lon="4.18661">
        <ele>1461</ele>
        <time>2020-09-03T09:08:49Z</time>
      </trkpt>
      <trkpt lat="44.86809" lon="4.18669">
        <ele>1463</ele>
        <time>2020-09-03T09:09:43Z</time>
      </trkpt>
      <trkpt lat="44.8678" lon="4.18659">
        <ele>1461</ele>
        <time>2020-09-03T09:10:23Z</time>
      </trkpt>
      <trkpt lat="44.8677" lon="4.18653">
        <ele>1461</ele>
        <time>2020-09-03T09:10:37Z</time>
      </trkpt>
      <trkpt lat="44.86765" lon="4.18653">
        <ele>1461</ele>
        <time>2020-09-03T09:10:44Z</time>
      </trkpt>
      <trkpt lat="44.86728" lon="4.18628">
        <ele>1460</ele>
        <time>2020-09-03T09:11:38Z</time>
      </trkpt>
      <trkpt lat="44.8672" lon="4.18627">
        <ele>1460</ele>
        <time>2020-09-03T09:11:49Z</time>
      </trkpt>
      <trkpt lat="44.86706" lon="4.18619">
        <ele>1461</ele>
        <time>2020-09-03T09:12:09Z</time>
      </trkpt>
      <trkpt lat="44.86693" lon="4.18617">
        <ele>1463</ele>
        <time>2020-09-03T09:12:27Z</time>
      </trkpt>
      <trkpt lat="44.86687" lon="4.1861">
        <ele>1463</ele>
        <time>2020-09-03T09:12:37Z</time>
      </trkpt>
      <trkpt lat="44.8667" lon="4.18613">
        <ele>1465</ele>
        <time>2020-09-03T09:13:00Z</time>
      </trkpt>
      <trkpt lat="44.8665" lon="4.18603">
        <ele>1466</ele>
        <time>2020-09-03T09:13:28Z</time>
      </trkpt>
      <trkpt lat="44.86634" lon="4.18585">
        <ele>1467</ele>
        <time>2020-09-03T09:13:56Z</time>
      </trkpt>
      <trkpt lat="44.8662" lon="4.18558">
        <ele>1467</ele>
        <time>2020-09-03T09:14:27Z</time>
      </trkpt>
      <trkpt lat="44.86615" lon="4.18539">
        <ele>1466</ele>
        <time>2020-09-03T09:14:46Z</time>
      </trkpt>
      <trkpt lat="44.86607" lon="4.18525">
        <ele>1467</ele>
        <time>2020-09-03T09:15:03Z</time>
      </trkpt>
      <trkpt lat="44.86607" lon="4.18516">
        <ele>1466</ele>
        <time>2020-09-03T09:15:12Z</time>
      </trkpt>
      <trkpt lat="44.86599" lon="4.18494">
        <ele>1466</ele>
        <time>2020-09-03T09:15:35Z</time>
      </trkpt>
      <trkpt lat="44.86584" lon="4.18483">
        <ele>1467</ele>
        <time>2020-09-03T09:15:58Z</time>
      </trkpt>
      <trkpt lat="44.86569" lon="4.18477">
        <ele>1468</ele>
        <time>2020-09-03T09:16:19Z</time>
      </trkpt>
      <trkpt lat="44.86568" lon="4.18485">
        <ele>1468</ele>
        <time>2020-09-03T09:16:26Z</time>
      </trkpt>
      <trkpt lat="44.86565" lon="4.18468">
        <ele>1467</ele>
        <time>2020-09-03T09:16:43Z</time>
      </trkpt>
      <trkpt lat="44.86556" lon="4.18462">
        <ele>1467</ele>
        <time>2020-09-03T09:16:56Z</time>
      </trkpt>
      <trkpt lat="44.86549" lon="4.1845">
        <ele>1467</ele>
        <time>2020-09-03T09:17:11Z</time>
      </trkpt>
      <trkpt lat="44.86544" lon="4.18447">
        <ele>1467</ele>
        <time>2020-09-03T09:17:18Z</time>
      </trkpt>
      <trkpt lat="44.86534" lon="4.18424">
        <ele>1466</ele>
        <time>2020-09-03T09:17:44Z</time>
      </trkpt>
      <trkpt lat="44.86517" lon="4.18398">
        <ele>1464</ele>
        <time>2020-09-03T09:18:17Z</time>
      </trkpt>
      <trkpt lat="44.86503" lon="4.18366">
        <ele>1462</ele>
        <time>2020-09-03T09:18:53Z</time>
      </trkpt>
      <trkpt lat="44.86492" lon="4.18353">
        <ele>1461</ele>
        <time>2020-09-03T09:19:12Z</time>
      </trkpt>
      <trkpt lat="44.86463" lon="4.18298">
        <ele>1458</ele>
        <time>2020-09-03T09:20:17Z</time>
      </trkpt>
      <trkpt lat="44.8645" lon="4.18278">
        <ele>1457</ele>
        <time>2020-09-03T09:20:42Z</time>
      </trkpt>
      <trkpt lat="44.86447" lon="4.18266">
        <ele>1456</ele>
        <time>2020-09-03T09:20:54Z</time>
      </trkpt>
      <trkpt lat="44.86433" lon="4.18237">
        <ele>1455</ele>
        <time>2020-09-03T09:21:28Z</time>
      </trkpt>
      <trkpt lat="44.86429" lon="4.18234">
        <ele>1455</ele>
        <time>2020-09-03T09:21:34Z</time>
      </trkpt>
      <trkpt lat="44.86425" lon="4.18237">
        <ele>1456</ele>
        <time>2020-09-03T09:21:40Z</time>
      </trkpt>
      <trkpt lat="44.8642" lon="4.18235">
        <ele>1456</ele>
        <time>2020-09-03T09:21:47Z</time>
      </trkpt>
      <trkpt lat="44.86411" lon="4.18227">
        <ele>1456</ele>
        <time>2020-09-03T09:22:01Z</time>
      </trkpt>
      <trkpt lat="44.86405" lon="4.18225">
        <ele>1457</ele>
        <time>2020-09-03T09:22:09Z</time>
      </trkpt>
      <trkpt lat="44.86396" lon="4.18215">
        <ele>1457</ele>
        <time>2020-09-03T09:22:24Z</time>
      </trkpt>
      <trkpt lat="44.86385" lon="4.18189">
        <ele>1457</ele>
        <time>2020-09-03T09:22:53Z</time>
      </trkpt>
      <trkpt lat="44.86382" lon="4.18175">
        <ele>1457</ele>
        <time>2020-09-03T09:23:07Z</time>
      </trkpt>
      <trkpt lat="44.86383" lon="4.18163">
        <ele>1456</ele>
        <time>2020-09-03T09:23:18Z</time>
      </trkpt>
      <trkpt lat="44.8638" lon="4.18153">
        <ele>1456</ele>
        <time>2020-09-03T09:23:29Z</time>
      </trkpt>
      <trkpt lat="44.8637" lon="4.18132">
        <ele>1456</ele>
        <time>2020-09-03T09:23:52Z</time>
      </trkpt>
      <trkpt lat="44.86355" lon="4.18112">
        <ele>1457</ele>
        <time>2020-09-03T09:24:20Z</time>
      </trkpt>
      <trkpt lat="44.86337" lon="4.18094">
        <ele>1458</ele>
        <time>2020-09-03T09:24:49Z</time>
      </trkpt>
      <trkpt lat="44.86323" lon="4.18064">
        <ele>1456</ele>
        <time>2020-09-03T09:25:23Z</time>
      </trkpt>
      <trkpt lat="44.86306" lon="4.18043">
        <ele>1456</ele>
        <time>2020-09-03T09:25:54Z</time>
      </trkpt>
      <trkpt lat="44.86302" lon="4.18034">
        <ele>1456</ele>
        <time>2020-09-03T09:26:04Z</time>
      </trkpt>
      <trkpt lat="44.86299" lon="4.18005">
        <ele>1453</ele>
        <time>2020-09-03T09:26:31Z</time>
      </trkpt>
      <trkpt lat="44.86284" lon="4.17973">
        <ele>1451</ele>
        <time>2020-09-03T09:27:08Z</time>
      </trkpt>
      <trkpt lat="44.86272" lon="4.17955">
        <ele>1452</ele>
        <time>2020-09-03T09:27:31Z</time>
      </trkpt>
      <trkpt lat="44.86266" lon="4.17951">
        <ele>1453</ele>
        <time>2020-09-03T09:27:40Z</time>
      </trkpt>
      <trkpt lat="44.86233" lon="4.17884">
        <ele>1450</ele>
        <time>2020-09-03T09:28:57Z</time>
      </trkpt>
      <trkpt lat="44.86216" lon="4.17854">
        <ele>1449</ele>
        <time>2020-09-03T09:29:33Z</time>
      </trkpt>
      <trkpt lat="44.8621" lon="4.17848">
        <ele>1449</ele>
        <time>2020-09-03T09:29:43Z</time>
      </trkpt>
      <trkpt lat="44.86205" lon="4.17838">
        <ele>1448</ele>
        <time>2020-09-03T09:29:55Z</time>
      </trkpt>
      <trkpt lat="44.86201" lon="4.17821">
        <ele>1447</ele>
        <time>2020-09-03T09:30:12Z</time>
      </trkpt>
      <trkpt lat="44.86193" lon="4.17806">
        <ele>1448</ele>
        <time>2020-09-03T09:30:29Z</time>
      </trkpt>
      <trkpt lat="44.86183" lon="4.17794">
        <ele>1449</ele>
        <time>2020-09-03T09:30:47Z</time>
      </trkpt>
      <trkpt lat="44.86177" lon="4.17782">
        <ele>1450</ele>
        <time>2020-09-03T09:31:01Z</time>
      </trkpt>
      <trkpt lat="44.86173" lon="4.1778">
        <ele>1451</ele>
        <time>2020-09-03T09:31:07Z</time>
      </trkpt>
      <trkpt lat="44.86153" lon="4.1774">
        <ele>1453</ele>
        <time>2020-09-03T09:31:53Z</time>
      </trkpt>
      <trkpt lat="44.8614" lon="4.17724">
        <ele>1455</ele>
        <time>2020-09-03T09:32:16Z</time>
      </trkpt>
      <trkpt lat="44.8612" lon="4.17713">
        <ele>1458</ele>
        <time>2020-09-03T09:32:45Z</time>
      </trkpt>
      <trkpt lat="44.86109" lon="4.177">
        <ele>1460</ele>
        <time>2020-09-03T09:33:04Z</time>
      </trkpt>
      <trkpt lat="44.86093" lon="4.17691">
        <ele>1463</ele>
        <time>2020-09-03T09:33:27Z</time>
      </trkpt>
      <trkpt lat="44.86066" lon="4.17664">
        <ele>1467</ele>
        <time>2020-09-03T09:34:11Z</time>
      </trkpt>
      <trkpt lat="44.86049" lon="4.17653">
        <ele>1469</ele>
        <time>2020-09-03T09:34:36Z</time>
      </trkpt>
      <trkpt lat="44.86045" lon="4.17645">
        <ele>1470</ele>
        <time>2020-09-03T09:34:45Z</time>
      </trkpt>
      <trkpt lat="44.86041" lon="4.17645">
        <ele>1470</ele>
        <time>2020-09-03T09:34:50Z</time>
      </trkpt>
      <trkpt lat="44.86025" lon="4.17633">
        <ele>1473</ele>
        <time>2020-09-03T09:35:15Z</time>
      </trkpt>
      <trkpt lat="44.86024" lon="4.17629">
        <ele>1473</ele>
        <time>2020-09-03T09:35:19Z</time>
      </trkpt>
      <trkpt lat="44.86009" lon="4.17616">
        <ele>1475</ele>
        <time>2020-09-03T09:35:42Z</time>
      </trkpt>
      <trkpt lat="44.85952" lon="4.17578">
        <ele>1482</ele>
        <time>2020-09-03T09:37:06Z</time>
      </trkpt>
      <trkpt lat="44.85907" lon="4.17542">
        <ele>1489</ele>
        <time>2020-09-03T09:38:15Z</time>
      </trkpt>
      <trkpt lat="44.85883" lon="4.17526">
        <ele>1493</ele>
        <time>2020-09-03T09:38:51Z</time>
      </trkpt>
      <trkpt lat="44.85861" lon="4.17504">
        <ele>1498</ele>
        <time>2020-09-03T09:39:27Z</time>
      </trkpt>
      <trkpt lat="44.8585" lon="4.17501">
        <ele>1500</ele>
        <time>2020-09-03T09:39:42Z</time>
      </trkpt>
      <trkpt lat="44.85839" lon="4.17488">
        <ele>1503</ele>
        <time>2020-09-03T09:40:01Z</time>
      </trkpt>
      <trkpt lat="44.85835" lon="4.17482">
        <ele>1505</ele>
        <time>2020-09-03T09:40:09Z</time>
      </trkpt>
      <trkpt lat="44.85835" lon="4.17467">
        <ele>1506</ele>
        <time>2020-09-03T09:40:23Z</time>
      </trkpt>
      <trkpt lat="44.85833" lon="4.17465">
        <ele>1507</ele>
        <time>2020-09-03T09:40:26Z</time>
      </trkpt>
      <trkpt lat="44.85837" lon="4.17455">
        <ele>1507</ele>
        <time>2020-09-03T09:40:37Z</time>
      </trkpt>
      <trkpt lat="44.85838" lon="4.17458">
        <ele>1507</ele>
        <time>2020-09-03T09:40:40Z</time>
      </trkpt>
      <trkpt lat="44.85841" lon="4.17454">
        <ele>1507</ele>
        <time>2020-09-03T09:40:45Z</time>
      </trkpt>
      <trkpt lat="44.85843" lon="4.17442">
        <ele>1508</ele>
        <time>2020-09-03T09:40:57Z</time>
      </trkpt>
      <trkpt lat="44.8584" lon="4.17434">
        <ele>1509</ele>
        <time>2020-09-03T09:41:06Z</time>
      </trkpt>
      <trkpt lat="44.85843" lon="4.17423">
        <ele>1510</ele>
        <time>2020-09-03T09:41:17Z</time>
      </trkpt>
      <trkpt lat="44.85851" lon="4.17413">
        <ele>1510</ele>
        <time>2020-09-03T09:41:31Z</time>
      </trkpt>
      <trkpt lat="44.8586" lon="4.17371">
        <ele>1515</ele>
        <time>2020-09-03T09:42:13Z</time>
      </trkpt>
      <trkpt lat="44.85863" lon="4.17368">
        <ele>1515</ele>
        <time>2020-09-03T09:42:18Z</time>
      </trkpt>
      <trkpt lat="44.85868" lon="4.1735">
        <ele>1517</ele>
        <time>2020-09-03T09:42:36Z</time>
      </trkpt>
      <trkpt lat="44.85873" lon="4.17347">
        <ele>1516</ele>
        <time>2020-09-03T09:42:43Z</time>
      </trkpt>
      <trkpt lat="44.85876" lon="4.17341">
        <ele>1517</ele>
        <time>2020-09-03T09:42:50Z</time>
      </trkpt>
      <trkpt lat="44.85873" lon="4.17337">
        <ele>1518</ele>
        <time>2020-09-03T09:42:56Z</time>
      </trkpt>
      <trkpt lat="44.85877" lon="4.17328">
        <ele>1518</ele>
        <time>2020-09-03T09:43:06Z</time>
      </trkpt>
      <trkpt lat="44.85875" lon="4.17312">
        <ele>1521</ele>
        <time>2020-09-03T09:43:21Z</time>
      </trkpt>
      <trkpt lat="44.85877" lon="4.17297">
        <ele>1522</ele>
        <time>2020-09-03T09:43:35Z</time>
      </trkpt>
      <trkpt lat="44.85884" lon="4.17283">
        <ele>1523</ele>
        <time>2020-09-03T09:43:52Z</time>
      </trkpt>
      <trkpt lat="44.85883" lon="4.17277">
        <ele>1524</ele>
        <time>2020-09-03T09:43:57Z</time>
      </trkpt>
      <trkpt lat="44.85887" lon="4.17265">
        <ele>1525</ele>
        <time>2020-09-03T09:44:10Z</time>
      </trkpt>
      <trkpt lat="44.85904" lon="4.17248">
        <ele>1525</ele>
        <time>2020-09-03T09:44:38Z</time>
      </trkpt>
      <trkpt lat="44.85913" lon="4.17235">
        <ele>1526</ele>
        <time>2020-09-03T09:44:55Z</time>
      </trkpt>
      <trkpt lat="44.85927" lon="4.17225">
        <ele>1526</ele>
        <time>2020-09-03T09:45:16Z</time>
      </trkpt>
      <trkpt lat="44.85937" lon="4.17212">
        <ele>1528</ele>
        <time>2020-09-03T09:45:34Z</time>
      </trkpt>
      <trkpt lat="44.85943" lon="4.1721">
        <ele>1528</ele>
        <time>2020-09-03T09:45:42Z</time>
      </trkpt>
      <trkpt lat="44.85945" lon="4.17204">
        <ele>1529</ele>
        <time>2020-09-03T09:45:49Z</time>
      </trkpt>
      <trkpt lat="44.85944" lon="4.17196">
        <ele>1530</ele>
        <time>2020-09-03T09:45:56Z</time>
      </trkpt>
      <trkpt lat="44.8591" lon="4.17169">
        <ele>1535</ele>
        <time>2020-09-03T09:46:48Z</time>
      </trkpt>
      <trkpt lat="44.85906" lon="4.17169">
        <ele>1535</ele>
        <time>2020-09-03T09:46:54Z</time>
      </trkpt>
      <trkpt lat="44.85899" lon="4.17163">
        <ele>1536</ele>
        <time>2020-09-03T09:47:05Z</time>
      </trkpt>
      <trkpt lat="44.85889" lon="4.17161">
        <ele>1537</ele>
        <time>2020-09-03T09:47:18Z</time>
      </trkpt>
      <trkpt lat="44.85883" lon="4.17156">
        <ele>1538</ele>
        <time>2020-09-03T09:47:27Z</time>
      </trkpt>
      <trkpt lat="44.85882" lon="4.1713">
        <ele>1540</ele>
        <time>2020-09-03T09:47:52Z</time>
      </trkpt>
      <trkpt lat="44.85895" lon="4.17123">
        <ele>1540</ele>
        <time>2020-09-03T09:48:11Z</time>
      </trkpt>
      <trkpt lat="44.85905" lon="4.17104">
        <ele>1542</ele>
        <time>2020-09-03T09:48:33Z</time>
      </trkpt>
      <trkpt lat="44.8591" lon="4.17103">
        <ele>1542</ele>
        <time>2020-09-03T09:48:40Z</time>
      </trkpt>
      <trkpt lat="44.85914" lon="4.17099">
        <ele>1542</ele>
        <time>2020-09-03T09:48:46Z</time>
      </trkpt>
      <trkpt lat="44.85914" lon="4.1709">
        <ele>1543</ele>
        <time>2020-09-03T09:48:55Z</time>
      </trkpt>
      <trkpt lat="44.8592" lon="4.17083">
        <ele>1544</ele>
        <time>2020-09-03T09:49:05Z</time>
      </trkpt>
      <trkpt lat="44.85931" lon="4.17076">
        <ele>1544</ele>
        <time>2020-09-03T09:49:21Z</time>
      </trkpt>
      <trkpt lat="44.85936" lon="4.17066">
        <ele>1545</ele>
        <time>2020-09-03T09:49:33Z</time>
      </trkpt>
      <trkpt lat="44.85937" lon="4.17058">
        <ele>1546</ele>
        <time>2020-09-03T09:49:40Z</time>
      </trkpt>
      <trkpt lat="44.85945" lon="4.17039">
        <ele>1547</ele>
        <time>2020-09-03T09:50:01Z</time>
      </trkpt>
      <trkpt lat="44.8595" lon="4.17015">
        <ele>1549</ele>
        <time>2020-09-03T09:50:25Z</time>
      </trkpt>
      <trkpt lat="44.85949" lon="4.17006">
        <ele>1550</ele>
        <time>2020-09-03T09:50:34Z</time>
      </trkpt>
      <trkpt lat="44.85952" lon="4.17004">
        <ele>1550</ele>
        <time>2020-09-03T09:50:38Z</time>
      </trkpt>
      <trkpt lat="44.85956" lon="4.16993">
        <ele>1550</ele>
        <time>2020-09-03T09:50:50Z</time>
      </trkpt>
      <trkpt lat="44.85961" lon="4.1699">
        <ele>1550</ele>
        <time>2020-09-03T09:50:57Z</time>
      </trkpt>
      <trkpt lat="44.85962" lon="4.16983">
        <ele>1551</ele>
        <time>2020-09-03T09:51:04Z</time>
      </trkpt>
      <trkpt lat="44.85977" lon="4.16955">
        <ele>1552</ele>
        <time>2020-09-03T09:51:37Z</time>
      </trkpt>
      <trkpt lat="44.85977" lon="4.16932">
        <ele>1553</ele>
        <time>2020-09-03T09:51:59Z</time>
      </trkpt>
      <trkpt lat="44.85987" lon="4.1692">
        <ele>1553</ele>
        <time>2020-09-03T09:52:16Z</time>
      </trkpt>
      <trkpt lat="44.85999" lon="4.16893">
        <ele>1556</ele>
        <time>2020-09-03T09:52:46Z</time>
      </trkpt>
      <trkpt lat="44.86007" lon="4.16861">
        <ele>1558</ele>
        <time>2020-09-03T09:53:19Z</time>
      </trkpt>
      <trkpt lat="44.86008" lon="4.16835">
        <ele>1561</ele>
        <time>2020-09-03T09:53:43Z</time>
      </trkpt>
      <trkpt lat="44.86004" lon="4.16825">
        <ele>1563</ele>
        <time>2020-09-03T09:53:54Z</time>
      </trkpt>
      <trkpt lat="44.86017" lon="4.1679">
        <ele>1566</ele>
        <time>2020-09-03T09:54:31Z</time>
      </trkpt>
      <trkpt lat="44.86018" lon="4.16777">
        <ele>1567</ele>
        <time>2020-09-03T09:54:44Z</time>
      </trkpt>
      <trkpt lat="44.86014" lon="4.16767">
        <ele>1569</ele>
        <time>2020-09-03T09:54:55Z</time>
      </trkpt>
      <trkpt lat="44.86021" lon="4.16762">
        <ele>1569</ele>
        <time>2020-09-03T09:55:05Z</time>
      </trkpt>
      <trkpt lat="44.86023" lon="4.16752">
        <ele>1570</ele>
        <time>2020-09-03T09:55:15Z</time>
      </trkpt>
      <trkpt lat="44.86021" lon="4.16737">
        <ele>1572</ele>
        <time>2020-09-03T09:55:29Z</time>
      </trkpt>
      <trkpt lat="44.86027" lon="4.16735">
        <ele>1572</ele>
        <time>2020-09-03T09:55:38Z</time>
      </trkpt>
      <trkpt lat="44.86034" lon="4.16728">
        <ele>1573</ele>
        <time>2020-09-03T09:55:49Z</time>
      </trkpt>
      <trkpt lat="44.86036" lon="4.16719">
        <ele>1574</ele>
        <time>2020-09-03T09:55:58Z</time>
      </trkpt>
      <trkpt lat="44.86034" lon="4.1669">
        <ele>1578</ele>
        <time>2020-09-03T09:56:26Z</time>
      </trkpt>
      <trkpt lat="44.8604" lon="4.16684">
        <ele>1578</ele>
        <time>2020-09-03T09:56:35Z</time>
      </trkpt>
      <trkpt lat="44.86044" lon="4.16675">
        <ele>1579</ele>
        <time>2020-09-03T09:56:45Z</time>
      </trkpt>
      <trkpt lat="44.86044" lon="4.16665">
        <ele>1580</ele>
        <time>2020-09-03T09:56:55Z</time>
      </trkpt>
      <trkpt lat="44.8605" lon="4.16651">
        <ele>1581</ele>
        <time>2020-09-03T09:57:10Z</time>
      </trkpt>
      <trkpt lat="44.86053" lon="4.16628">
        <ele>1583</ele>
        <time>2020-09-03T09:57:32Z</time>
      </trkpt>
      <trkpt lat="44.86054" lon="4.16572">
        <ele>1586</ele>
        <time>2020-09-03T09:58:25Z</time>
      </trkpt>
      <trkpt lat="44.86047" lon="4.16551">
        <ele>1584</ele>
        <time>2020-09-03T09:58:47Z</time>
      </trkpt>
      <trkpt lat="44.86041" lon="4.16546">
        <ele>1585</ele>
        <time>2020-09-03T09:58:57Z</time>
      </trkpt>
      <trkpt lat="44.86039" lon="4.16566">
        <ele>1588</ele>
        <time>2020-09-03T09:59:16Z</time>
      </trkpt>
      <trkpt lat="44.86043" lon="4.16583">
        <ele>1589</ele>
        <time>2020-09-03T09:59:33Z</time>
      </trkpt>
      <trkpt lat="44.8604" lon="4.16612">
        <ele>1586</ele>
        <time>2020-09-03T10:00:00Z</time>
      </trkpt>
      <trkpt lat="44.86031" lon="4.1664">
        <ele>1584</ele>
        <time>2020-09-03T10:00:30Z</time>
      </trkpt>
      <trkpt lat="44.86033" lon="4.16647">
        <ele>1583</ele>
        <time>2020-09-03T10:00:37Z</time>
      </trkpt>
      <trkpt lat="44.86032" lon="4.16657">
        <ele>1582</ele>
        <time>2020-09-03T10:00:46Z</time>
      </trkpt>
      <trkpt lat="44.86028" lon="4.16664">
        <ele>1582</ele>
        <time>2020-09-03T10:00:55Z</time>
      </trkpt>
      <trkpt lat="44.86027" lon="4.16674">
        <ele>1581</ele>
        <time>2020-09-03T10:01:04Z</time>
      </trkpt>
      <trkpt lat="44.86024" lon="4.16677">
        <ele>1581</ele>
        <time>2020-09-03T10:01:09Z</time>
      </trkpt>
      <trkpt lat="44.86024" lon="4.16687">
        <ele>1579</ele>
        <time>2020-09-03T10:01:19Z</time>
      </trkpt>
      <trkpt lat="44.86017" lon="4.16718">
        <ele>1575</ele>
        <time>2020-09-03T10:01:49Z</time>
      </trkpt>
      <trkpt lat="44.86014" lon="4.16766">
        <ele>1569</ele>
        <time>2020-09-03T10:02:35Z</time>
      </trkpt>
      <trkpt lat="44.86003" lon="4.168">
        <ele>1566</ele>
        <time>2020-09-03T10:03:10Z</time>
      </trkpt>
      <trkpt lat="44.86005" lon="4.16806">
        <ele>1565</ele>
        <time>2020-09-03T10:03:17Z</time>
      </trkpt>
      <trkpt lat="44.85999" lon="4.16815">
        <ele>1564</ele>
        <time>2020-09-03T10:03:28Z</time>
      </trkpt>
      <trkpt lat="44.85994" lon="4.16833">
        <ele>1562</ele>
        <time>2020-09-03T10:03:47Z</time>
      </trkpt>
      <trkpt lat="44.85991" lon="4.16856">
        <ele>1559</ele>
        <time>2020-09-03T10:04:09Z</time>
      </trkpt>
      <trkpt lat="44.85981" lon="4.16868">
        <ele>1558</ele>
        <time>2020-09-03T10:04:26Z</time>
      </trkpt>
      <trkpt lat="44.85979" lon="4.16879">
        <ele>1557</ele>
        <time>2020-09-03T10:04:37Z</time>
      </trkpt>
      <trkpt lat="44.85981" lon="4.16893">
        <ele>1556</ele>
        <time>2020-09-03T10:04:50Z</time>
      </trkpt>
      <trkpt lat="44.85979" lon="4.16902">
        <ele>1555</ele>
        <time>2020-09-03T10:04:59Z</time>
      </trkpt>
      <trkpt lat="44.85981" lon="4.16905">
        <ele>1555</ele>
        <time>2020-09-03T10:05:03Z</time>
      </trkpt>
      <trkpt lat="44.85971" lon="4.16945">
        <ele>1552</ele>
        <time>2020-09-03T10:05:43Z</time>
      </trkpt>
      <trkpt lat="44.85962" lon="4.16966">
        <ele>1552</ele>
        <time>2020-09-03T10:06:07Z</time>
      </trkpt>
      <trkpt lat="44.85963" lon="4.16976">
        <ele>1551</ele>
        <time>2020-09-03T10:06:16Z</time>
      </trkpt>
      <trkpt lat="44.8595" lon="4.16996">
        <ele>1550</ele>
        <time>2020-09-03T10:06:42Z</time>
      </trkpt>
      <trkpt lat="44.85939" lon="4.17035">
        <ele>1548</ele>
        <time>2020-09-03T10:07:22Z</time>
      </trkpt>
      <trkpt lat="44.85935" lon="4.1704">
        <ele>1547</ele>
        <time>2020-09-03T10:07:29Z</time>
      </trkpt>
      <trkpt lat="44.85932" lon="4.17059">
        <ele>1546</ele>
        <time>2020-09-03T10:07:47Z</time>
      </trkpt>
      <trkpt lat="44.85917" lon="4.17081">
        <ele>1544</ele>
        <time>2020-09-03T10:08:16Z</time>
      </trkpt>
      <trkpt lat="44.85912" lon="4.17094">
        <ele>1543</ele>
        <time>2020-09-03T10:08:30Z</time>
      </trkpt>
      <trkpt lat="44.859" lon="4.171">
        <ele>1543</ele>
        <time>2020-09-03T10:08:47Z</time>
      </trkpt>
      <trkpt lat="44.85881" lon="4.17126">
        <ele>1540</ele>
        <time>2020-09-03T10:09:22Z</time>
      </trkpt>
      <trkpt lat="44.85875" lon="4.17139">
        <ele>1539</ele>
        <time>2020-09-03T10:09:37Z</time>
      </trkpt>
      <trkpt lat="44.85874" lon="4.1715">
        <ele>1539</ele>
        <time>2020-09-03T10:09:47Z</time>
      </trkpt>
      <trkpt lat="44.85877" lon="4.17157">
        <ele>1538</ele>
        <time>2020-09-03T10:09:55Z</time>
      </trkpt>
      <trkpt lat="44.85906" lon="4.17169">
        <ele>1535</ele>
        <time>2020-09-03T10:10:36Z</time>
      </trkpt>
      <trkpt lat="44.85946" lon="4.17202">
        <ele>1529</ele>
        <time>2020-09-03T10:11:37Z</time>
      </trkpt>
      <trkpt lat="44.85951" lon="4.17203">
        <ele>1529</ele>
        <time>2020-09-03T10:11:44Z</time>
      </trkpt>
      <trkpt lat="44.85964" lon="4.17201">
        <ele>1529</ele>
        <time>2020-09-03T10:12:02Z</time>
      </trkpt>
      <trkpt lat="44.85964" lon="4.17199">
        <ele>1529</ele>
        <time>2020-09-03T10:12:03Z</time>
      </trkpt>
      <trkpt lat="44.85969" lon="4.17197">
        <ele>1529</ele>
        <time>2020-09-03T10:12:10Z</time>
      </trkpt>
      <trkpt lat="44.86017" lon="4.17198">
        <ele>1528</ele>
        <time>2020-09-03T10:13:14Z</time>
      </trkpt>
      <trkpt lat="44.86047" lon="4.17195">
        <ele>1528</ele>
        <time>2020-09-03T10:13:55Z</time>
      </trkpt>
      <trkpt lat="44.86062" lon="4.17189">
        <ele>1528</ele>
        <time>2020-09-03T10:14:15Z</time>
      </trkpt>
      <trkpt lat="44.86068" lon="4.17189">
        <ele>1528</ele>
        <time>2020-09-03T10:14:23Z</time>
      </trkpt>
      <trkpt lat="44.86098" lon="4.17156">
        <ele>1530</ele>
        <time>2020-09-03T10:15:14Z</time>
      </trkpt>
      <trkpt lat="44.86127" lon="4.17153">
        <ele>1528</ele>
        <time>2020-09-03T10:15:53Z</time>
      </trkpt>
      <trkpt lat="44.86143" lon="4.17145">
        <ele>1528</ele>
        <time>2020-09-03T10:16:16Z</time>
      </trkpt>
      <trkpt lat="44.86147" lon="4.17135">
        <ele>1528</ele>
        <time>2020-09-03T10:16:26Z</time>
      </trkpt>
      <trkpt lat="44.86161" lon="4.1712">
        <ele>1528</ele>
        <time>2020-09-03T10:16:50Z</time>
      </trkpt>
      <trkpt lat="44.86173" lon="4.17116">
        <ele>1526</ele>
        <time>2020-09-03T10:17:06Z</time>
      </trkpt>
      <trkpt lat="44.86188" lon="4.17102">
        <ele>1525</ele>
        <time>2020-09-03T10:17:30Z</time>
      </trkpt>
      <trkpt lat="44.86199" lon="4.17081">
        <ele>1524</ele>
        <time>2020-09-03T10:17:55Z</time>
      </trkpt>
      <trkpt lat="44.86224" lon="4.17063">
        <ele>1519</ele>
        <time>2020-09-03T10:18:33Z</time>
      </trkpt>
      <trkpt lat="44.86232" lon="4.17051">
        <ele>1518</ele>
        <time>2020-09-03T10:18:48Z</time>
      </trkpt>
      <trkpt lat="44.86241" lon="4.17023">
        <ele>1516</ele>
        <time>2020-09-03T10:19:17Z</time>
      </trkpt>
      <trkpt lat="44.86246" lon="4.17016">
        <ele>1515</ele>
        <time>2020-09-03T10:19:27Z</time>
      </trkpt>
      <trkpt lat="44.86249" lon="4.17013">
        <ele>1514</ele>
        <time>2020-09-03T10:19:31Z</time>
      </trkpt>
      <trkpt lat="44.8626" lon="4.17012">
        <ele>1512</ele>
        <time>2020-09-03T10:19:46Z</time>
      </trkpt>
      <trkpt lat="44.86268" lon="4.17008">
        <ele>1509</ele>
        <time>2020-09-03T10:19:58Z</time>
      </trkpt>
      <trkpt lat="44.86272" lon="4.16988">
        <ele>1508</ele>
        <time>2020-09-03T10:20:17Z</time>
      </trkpt>
      <trkpt lat="44.86278" lon="4.16973">
        <ele>1506</ele>
        <time>2020-09-03T10:20:33Z</time>
      </trkpt>
      <trkpt lat="44.86285" lon="4.16961">
        <ele>1504</ele>
        <time>2020-09-03T10:20:48Z</time>
      </trkpt>
      <trkpt lat="44.863" lon="4.16944">
        <ele>1501</ele>
        <time>2020-09-03T10:21:14Z</time>
      </trkpt>
      <trkpt lat="44.86301" lon="4.16939">
        <ele>1500</ele>
        <time>2020-09-03T10:21:19Z</time>
      </trkpt>
      <trkpt lat="44.86312" lon="4.16923">
        <ele>1497</ele>
        <time>2020-09-03T10:21:40Z</time>
      </trkpt>
      <trkpt lat="44.86319" lon="4.16904">
        <ele>1496</ele>
        <time>2020-09-03T10:22:00Z</time>
      </trkpt>
      <trkpt lat="44.86334" lon="4.16818">
        <ele>1492</ele>
        <time>2020-09-03T10:23:24Z</time>
      </trkpt>
      <trkpt lat="44.86338" lon="4.16812">
        <ele>1490</ele>
        <time>2020-09-03T10:23:32Z</time>
      </trkpt>
      <trkpt lat="44.86342" lon="4.16792">
        <ele>1488</ele>
        <time>2020-09-03T10:23:51Z</time>
      </trkpt>
      <trkpt lat="44.86341" lon="4.16777">
        <ele>1488</ele>
        <time>2020-09-03T10:24:06Z</time>
      </trkpt>
      <trkpt lat="44.86345" lon="4.16753">
        <ele>1485</ele>
        <time>2020-09-03T10:24:29Z</time>
      </trkpt>
      <trkpt lat="44.86341" lon="4.16696">
        <ele>1483</ele>
        <time>2020-09-03T10:25:23Z</time>
      </trkpt>
      <trkpt lat="44.8632" lon="4.16636">
        <ele>1486</ele>
        <time>2020-09-03T10:26:26Z</time>
      </trkpt>
      <trkpt lat="44.86308" lon="4.16615">
        <ele>1488</ele>
        <time>2020-09-03T10:26:52Z</time>
      </trkpt>
      <trkpt lat="44.86303" lon="4.16579">
        <ele>1485</ele>
        <time>2020-09-03T10:27:27Z</time>
      </trkpt>
      <trkpt lat="44.86307" lon="4.16572">
        <ele>1483</ele>
        <time>2020-09-03T10:27:35Z</time>
      </trkpt>
      <trkpt lat="44.86308" lon="4.16554">
        <ele>1481</ele>
        <time>2020-09-03T10:27:52Z</time>
      </trkpt>
      <trkpt lat="44.86306" lon="4.16515">
        <ele>1479</ele>
        <time>2020-09-03T10:28:29Z</time>
      </trkpt>
      <trkpt lat="44.86314" lon="4.16473">
        <ele>1473</ele>
        <time>2020-09-03T10:29:10Z</time>
      </trkpt>
      <trkpt lat="44.86309" lon="4.16462">
        <ele>1473</ele>
        <time>2020-09-03T10:29:23Z</time>
      </trkpt>
      <trkpt lat="44.8631" lon="4.16446">
        <ele>1471</ele>
        <time>2020-09-03T10:29:38Z</time>
      </trkpt>
      <trkpt lat="44.86308" lon="4.16438">
        <ele>1471</ele>
        <time>2020-09-03T10:29:46Z</time>
      </trkpt>
      <trkpt lat="44.86294" lon="4.16409">
        <ele>1471</ele>
        <time>2020-09-03T10:30:19Z</time>
      </trkpt>
      <trkpt lat="44.86292" lon="4.16396">
        <ele>1470</ele>
        <time>2020-09-03T10:30:32Z</time>
      </trkpt>
      <trkpt lat="44.86279" lon="4.1637">
        <ele>1470</ele>
        <time>2020-09-03T10:31:02Z</time>
      </trkpt>
      <trkpt lat="44.86267" lon="4.16356">
        <ele>1470</ele>
        <time>2020-09-03T10:31:23Z</time>
      </trkpt>
      <trkpt lat="44.86227" lon="4.16324">
        <ele>1475</ele>
        <time>2020-09-03T10:32:24Z</time>
      </trkpt>
      <trkpt lat="44.86217" lon="4.1632">
        <ele>1476</ele>
        <time>2020-09-03T10:32:38Z</time>
      </trkpt>
      <trkpt lat="44.86186" lon="4.16287">
        <ele>1478</ele>
        <time>2020-09-03T10:33:30Z</time>
      </trkpt>
      <trkpt lat="44.86155" lon="4.16266">
        <ele>1482</ele>
        <time>2020-09-03T10:34:15Z</time>
      </trkpt>
      <trkpt lat="44.86104" lon="4.16212">
        <ele>1489</ele>
        <time>2020-09-03T10:35:41Z</time>
      </trkpt>
      <trkpt lat="44.86101" lon="4.16201">
        <ele>1488</ele>
        <time>2020-09-03T10:35:52Z</time>
      </trkpt>
      <trkpt lat="44.86101" lon="4.16189">
        <ele>1486</ele>
        <time>2020-09-03T10:36:03Z</time>
      </trkpt>
      <trkpt lat="44.86093" lon="4.16176">
        <ele>1488</ele>
        <time>2020-09-03T10:36:19Z</time>
      </trkpt>
      <trkpt lat="44.86092" lon="4.16168">
        <ele>1487</ele>
        <time>2020-09-03T10:36:27Z</time>
      </trkpt>
      <trkpt lat="44.86083" lon="4.16152">
        <ele>1489</ele>
        <time>2020-09-03T10:36:46Z</time>
      </trkpt>
      <trkpt lat="44.86075" lon="4.16111">
        <ele>1488</ele>
        <time>2020-09-03T10:37:27Z</time>
      </trkpt>
      <trkpt lat="44.86069" lon="4.16102">
        <ele>1488</ele>
        <time>2020-09-03T10:37:38Z</time>
      </trkpt>
      <trkpt lat="44.8606" lon="4.16065">
        <ele>1487</ele>
        <time>2020-09-03T10:38:15Z</time>
      </trkpt>
      <trkpt lat="44.8604" lon="4.16025">
        <ele>1487</ele>
        <time>2020-09-03T10:39:02Z</time>
      </trkpt>
      <trkpt lat="44.86031" lon="4.15999">
        <ele>1486</ele>
        <time>2020-09-03T10:39:29Z</time>
      </trkpt>
      <trkpt lat="44.86021" lon="4.15986">
        <ele>1487</ele>
        <time>2020-09-03T10:39:47Z</time>
      </trkpt>
      <trkpt lat="44.86006" lon="4.15956">
        <ele>1487</ele>
        <time>2020-09-03T10:40:22Z</time>
      </trkpt>
      <trkpt lat="44.85997" lon="4.1595">
        <ele>1487</ele>
        <time>2020-09-03T10:40:35Z</time>
      </trkpt>
      <trkpt lat="44.85988" lon="4.15949">
        <ele>1487</ele>
        <time>2020-09-03T10:40:47Z</time>
      </trkpt>
      <trkpt lat="44.85969" lon="4.15938">
        <ele>1487</ele>
        <time>2020-09-03T10:41:15Z</time>
      </trkpt>
      <trkpt lat="44.85934" lon="4.15934">
        <ele>1487</ele>
        <time>2020-09-03T10:42:01Z</time>
      </trkpt>
      <trkpt lat="44.85925" lon="4.15931">
        <ele>1487</ele>
        <time>2020-09-03T10:42:14Z</time>
      </trkpt>
      <trkpt lat="44.85914" lon="4.15923">
        <ele>1486</ele>
        <time>2020-09-03T10:42:30Z</time>
      </trkpt>
      <trkpt lat="44.85884" lon="4.15924">
        <ele>1485</ele>
        <time>2020-09-03T10:43:10Z</time>
      </trkpt>
      <trkpt lat="44.85876" lon="4.15928">
        <ele>1485</ele>
        <time>2020-09-03T10:43:22Z</time>
      </trkpt>
      <trkpt lat="44.85868" lon="4.15928">
        <ele>1484</ele>
        <time>2020-09-03T10:43:32Z</time>
      </trkpt>
      <trkpt lat="44.85857" lon="4.15935">
        <ele>1484</ele>
        <time>2020-09-03T10:43:48Z</time>
      </trkpt>
      <trkpt lat="44.85846" lon="4.15938">
        <ele>1484</ele>
        <time>2020-09-03T10:44:03Z</time>
      </trkpt>
      <trkpt lat="44.85838" lon="4.15937">
        <ele>1484</ele>
        <time>2020-09-03T10:44:14Z</time>
      </trkpt>
      <trkpt lat="44.85832" lon="4.15944">
        <ele>1484</ele>
        <time>2020-09-03T10:44:24Z</time>
      </trkpt>
      <trkpt lat="44.8583" lon="4.15943">
        <ele>1484</ele>
        <time>2020-09-03T10:44:27Z</time>
      </trkpt>
      <trkpt lat="44.85814" lon="4.1595">
        <ele>1482</ele>
        <time>2020-09-03T10:44:50Z</time>
      </trkpt>
      <trkpt lat="44.85788" lon="4.15968">
        <ele>1481</ele>
        <time>2020-09-03T10:45:28Z</time>
      </trkpt>
      <trkpt lat="44.85784" lon="4.15966">
        <ele>1480</ele>
        <time>2020-09-03T10:45:34Z</time>
      </trkpt>
      <trkpt lat="44.8578" lon="4.15971">
        <ele>1480</ele>
        <time>2020-09-03T10:45:41Z</time>
      </trkpt>
      <trkpt lat="44.85772" lon="4.1597">
        <ele>1479</ele>
        <time>2020-09-03T10:45:52Z</time>
      </trkpt>
      <trkpt lat="44.85767" lon="4.15973">
        <ele>1479</ele>
        <time>2020-09-03T10:45:59Z</time>
      </trkpt>
      <trkpt lat="44.85759" lon="4.1598">
        <ele>1479</ele>
        <time>2020-09-03T10:46:12Z</time>
      </trkpt>
      <trkpt lat="44.85754" lon="4.15993">
        <ele>1479</ele>
        <time>2020-09-03T10:46:26Z</time>
      </trkpt>
      <trkpt lat="44.85749" lon="4.15999">
        <ele>1479</ele>
        <time>2020-09-03T10:46:34Z</time>
      </trkpt>
      <trkpt lat="44.85747" lon="4.16012">
        <ele>1480</ele>
        <time>2020-09-03T10:46:47Z</time>
      </trkpt>
      <trkpt lat="44.85742" lon="4.16022">
        <ele>1480</ele>
        <time>2020-09-03T10:46:59Z</time>
      </trkpt>
      <trkpt lat="44.85729" lon="4.16027">
        <ele>1480</ele>
        <time>2020-09-03T10:47:17Z</time>
      </trkpt>
      <trkpt lat="44.8572" lon="4.16038">
        <ele>1481</ele>
        <time>2020-09-03T10:47:32Z</time>
      </trkpt>
      <trkpt lat="44.85705" lon="4.1605">
        <ele>1481</ele>
        <time>2020-09-03T10:47:55Z</time>
      </trkpt>
      <trkpt lat="44.85693" lon="4.16053">
        <ele>1481</ele>
        <time>2020-09-03T10:48:12Z</time>
      </trkpt>
      <trkpt lat="44.85683" lon="4.16062">
        <ele>1481</ele>
        <time>2020-09-03T10:48:28Z</time>
      </trkpt>
      <trkpt lat="44.85673" lon="4.16066">
        <ele>1481</ele>
        <time>2020-09-03T10:48:41Z</time>
      </trkpt>
      <trkpt lat="44.8566" lon="4.16084">
        <ele>1483</ele>
        <time>2020-09-03T10:49:06Z</time>
      </trkpt>
      <trkpt lat="44.85654" lon="4.16085">
        <ele>1482</ele>
        <time>2020-09-03T10:49:14Z</time>
      </trkpt>
      <trkpt lat="44.85652" lon="4.16089">
        <ele>1482</ele>
        <time>2020-09-03T10:49:18Z</time>
      </trkpt>
      <trkpt lat="44.85633" lon="4.16097">
        <ele>1482</ele>
        <time>2020-09-03T10:49:45Z</time>
      </trkpt>
      <trkpt lat="44.85631" lon="4.16103">
        <ele>1482</ele>
        <time>2020-09-03T10:49:51Z</time>
        <extensions>
          <visugpx:TrkExtension xmlns:visugpx="https://www.visugpx.com/editgpx/">
            <visugpx:node>1</visugpx:node>
            </visugpx:TrkExtension>
        </extensions>
      </trkpt>
      <trkpt lat="44.85631" lon="4.16104">
        <ele>1483.1</ele>
      </trkpt>
      <trkpt lat="44.85628" lon="4.16106">
        <ele>1483.1</ele>
        <extensions>
          <visugpx:TrkExtension xmlns:visugpx="https://www.visugpx.com/editgpx/">
            <visugpx:node>15</visugpx:node>
            </visugpx:TrkExtension>
        </extensions>
      </trkpt>
      <trkpt lat="44.85605" lon="4.16119">
        <ele>1482.8</ele>
      </trkpt>
      <trkpt lat="44.856" lon="4.16121">
        <ele>1482.7</ele>
      </trkpt>
      <trkpt lat="44.85598" lon="4.16156">
        <ele>1484.4</ele>
      </trkpt>
      <trkpt lat="44.8561" lon="4.16178">
        <ele>1489.2</ele>
      </trkpt>
      <trkpt lat="44.85626" lon="4.16202">
        <ele>1491</ele>
      </trkpt>
      <trkpt lat="44.85659" lon="4.16229">
        <ele>1493.6</ele>
      </trkpt>
      <trkpt lat="44.85664" lon="4.16245">
        <ele>1495.8</ele>
      </trkpt>
      <trkpt lat="44.85691" lon="4.16231">
        <ele>1497.2</ele>
      </trkpt>
      <trkpt lat="44.857" lon="4.1624">
        <ele>1497.8</ele>
      </trkpt>
      <trkpt lat="44.85706" lon="4.1626">
        <ele>1503.5</ele>
      </trkpt>
      <trkpt lat="44.85703" lon="4.16277">
        <ele>1504</ele>
      </trkpt>
      <trkpt lat="44.85681" lon="4.16308">
        <ele>1504.4</ele>
      </trkpt>
      <trkpt lat="44.8567" lon="4.16328">
        <ele>1504.2</ele>
      </trkpt>
      <trkpt lat="44.8565" lon="4.16344">
        <ele>1505.5</ele>
      </trkpt>
      <trkpt lat="44.85639" lon="4.16367">
        <ele>1506.6</ele>
      </trkpt>
      <trkpt lat="44.85622" lon="4.16396">
        <ele>1507.6</ele>
      </trkpt>
      <trkpt lat="44.85618" lon="4.16418">
        <ele>1512.3</ele>
      </trkpt>
      <trkpt lat="44.85627" lon="4.16502">
        <ele>1518.7</ele>
      </trkpt>
      <trkpt lat="44.85622" lon="4.16527">
        <ele>1519</ele>
      </trkpt>
      <trkpt lat="44.85621" lon="4.16552">
        <ele>1520</ele>
      </trkpt>
      <trkpt lat="44.85629" lon="4.16575">
        <ele>1521.1</ele>
      </trkpt>
      <trkpt lat="44.85643" lon="4.16602">
        <ele>1526.2</ele>
      </trkpt>
      <trkpt lat="44.85646" lon="4.1663">
        <ele>1527.3</ele>
      </trkpt>
      <trkpt lat="44.85643" lon="4.16658">
        <ele>1528.8</ele>
      </trkpt>
      <trkpt lat="44.85649" lon="4.16716">
        <ele>1533.6</ele>
        <extensions>
          <visugpx:TrkExtension xmlns:visugpx="https://www.visugpx.com/editgpx/">
            <visugpx:node>17</visugpx:node>
            </visugpx:TrkExtension>
        </extensions>
      </trkpt>
      <trkpt lat="44.85649" lon="4.16723">
        <ele>1534</ele>
      </trkpt>
      <trkpt lat="44.85646" lon="4.16774">
        <ele>1538.2</ele>
      </trkpt>
      <trkpt lat="44.85655" lon="4.16801">
        <ele>1539.4</ele>
      </trkpt>
      <trkpt lat="44.85672" lon="4.16842">
        <ele>1545.6</ele>
      </trkpt>
      <trkpt lat="44.85706" lon="4.16902">
        <ele>1548.9</ele>
      </trkpt>
      <trkpt lat="44.85724" lon="4.16937">
        <ele>1550.5</ele>
      </trkpt>
      <trkpt lat="44.85711" lon="4.16954">
        <ele>1550.3</ele>
        <extensions>
          <visugpx:TrkExtension xmlns:visugpx="https://www.visugpx.com/editgpx/">
            <visugpx:node>18</visugpx:node>
            </visugpx:TrkExtension>
        </extensions>
      </trkpt>
      <trkpt lat="44.85702" lon="4.16966">
        <ele>1550.2</ele>
      </trkpt>
      <trkpt lat="44.85683" lon="4.17001">
        <ele>1551.7</ele>
      </trkpt>
      <trkpt lat="44.85663" lon="4.17046">
        <ele>1554.2</ele>
      </trkpt>
      <trkpt lat="44.85652" lon="4.17098">
        <ele>1558</ele>
      </trkpt>
      <trkpt lat="44.85633" lon="4.17159">
        <ele>1560.2</ele>
      </trkpt>
      <trkpt lat="44.85622" lon="4.17188">
        <ele>1564.8</ele>
      </trkpt>
      <trkpt lat="44.85606" lon="4.17205">
        <ele>1566.3</ele>
      </trkpt>
      <trkpt lat="44.85596" lon="4.17213">
        <ele>1567.3</ele>
      </trkpt>
      <trkpt lat="44.85595" lon="4.17226">
        <ele>1568.6</ele>
      </trkpt>
      <trkpt lat="44.85597" lon="4.17248">
        <ele>1570.9</ele>
      </trkpt>
      <trkpt lat="44.85591" lon="4.17267">
        <ele>1573.3</ele>
      </trkpt>
      <trkpt lat="44.85577" lon="4.17283">
        <ele>1577.7</ele>
      </trkpt>
      <trkpt lat="44.8555" lon="4.17306">
        <ele>1578.8</ele>
      </trkpt>
      <trkpt lat="44.85524" lon="4.17341">
        <ele>1580.9</ele>
      </trkpt>
      <trkpt lat="44.85518" lon="4.17359">
        <ele>1580.8</ele>
      </trkpt>
      <trkpt lat="44.85513" lon="4.17365">
        <ele>1580.7</ele>
      </trkpt>
      <trkpt lat="44.85502" lon="4.17365">
        <ele>1580.8</ele>
      </trkpt>
      <trkpt lat="44.85492" lon="4.17379">
        <ele>1578.5</ele>
      </trkpt>
      <trkpt lat="44.8547" lon="4.17395">
        <ele>1577.7</ele>
      </trkpt>
      <trkpt lat="44.8547" lon="4.17395">
        <ele>1577.7</ele>
        <extensions>
          <visugpx:TrkExtension xmlns:visugpx="https://www.visugpx.com/editgpx/">
            <visugpx:node>19</visugpx:node>
            </visugpx:TrkExtension>
        </extensions>
      </trkpt>
      <trkpt lat="44.8547" lon="4.17395">
        <ele>1577.7</ele>
      </trkpt>
      <trkpt lat="44.85454" lon="4.1739">
        <ele>1576.8</ele>
      </trkpt>
      <trkpt lat="44.85446" lon="4.17391">
        <ele>1576.3</ele>
      </trkpt>
      <trkpt lat="44.85429" lon="4.17405">
        <ele>1574.9</ele>
      </trkpt>
      <trkpt lat="44.85417" lon="4.17409">
        <ele>1574</ele>
      </trkpt>
      <trkpt lat="44.854" lon="4.1742">
        <ele>1570.8</ele>
      </trkpt>
      <trkpt lat="44.85393" lon="4.17422">
        <ele>1570.1</ele>
      </trkpt>
      <trkpt lat="44.85386" lon="4.17427">
        <ele>1569.5</ele>
      </trkpt>
      <trkpt lat="44.85375" lon="4.1743">
        <ele>1568.7</ele>
      </trkpt>
      <trkpt lat="44.85366" lon="4.1744">
        <ele>1568.2</ele>
      </trkpt>
      <trkpt lat="44.85354" lon="4.17459">
        <ele>1568.2</ele>
      </trkpt>
      <trkpt lat="44.85343" lon="4.17466">
        <ele>1568.1</ele>
      </trkpt>
      <trkpt lat="44.85334" lon="4.17458">
        <ele>1567.7</ele>
      </trkpt>
      <trkpt lat="44.85329" lon="4.17438">
        <ele>1562.2</ele>
      </trkpt>
      <trkpt lat="44.8533" lon="4.17427">
        <ele>1562.3</ele>
      </trkpt>
      <trkpt lat="44.85339" lon="4.17407">
        <ele>1564.2</ele>
      </trkpt>
      <trkpt lat="44.85336" lon="4.17395">
        <ele>1564.5</ele>
      </trkpt>
      <trkpt lat="44.85336" lon="4.17359">
        <ele>1563.2</ele>
      </trkpt>
      <trkpt lat="44.85333" lon="4.17352">
        <ele>1555.9</ele>
      </trkpt>
      <trkpt lat="44.85324" lon="4.1735">
        <ele>1555.6</ele>
      </trkpt>
      <trkpt lat="44.85315" lon="4.17351">
        <ele>1554.9</ele>
      </trkpt>
      <trkpt lat="44.85279" lon="4.17376">
        <ele>1552.2</ele>
      </trkpt>
      <trkpt lat="44.85272" lon="4.17378">
        <ele>1551.8</ele>
      </trkpt>
      <trkpt lat="44.85266" lon="4.17375">
        <ele>1551.2</ele>
      </trkpt>
      <trkpt lat="44.85237" lon="4.17349">
        <ele>1541</ele>
      </trkpt>
      <trkpt lat="44.85234" lon="4.17338">
        <ele>1540.8</ele>
      </trkpt>
      <trkpt lat="44.85228" lon="4.17326">
        <ele>1537.1</ele>
      </trkpt>
      <trkpt lat="44.85219" lon="4.17295">
        <ele>1535</ele>
      </trkpt>
      <trkpt lat="44.85211" lon="4.1729">
        <ele>1534.4</ele>
        <extensions>
          <visugpx:TrkExtension xmlns:visugpx="https://www.visugpx.com/editgpx/">
            <visugpx:node>21</visugpx:node>
            </visugpx:TrkExtension>
        </extensions>
      </trkpt>
      <trkpt lat="44.85205" lon="4.17281">
        <ele>1533.9</ele>
      </trkpt>
      <trkpt lat="44.85195" lon="4.17279">
        <ele>1533.1</ele>
      </trkpt>
      <trkpt lat="44.85182" lon="4.17282">
        <ele>1532.4</ele>
      </trkpt>
      <trkpt lat="44.85168" lon="4.17278">
        <ele>1531.6</ele>
      </trkpt>
      <trkpt lat="44.85153" lon="4.17289">
        <ele>1525.7</ele>
      </trkpt>
      <trkpt lat="44.85146" lon="4.17301">
        <ele>1525.6</ele>
      </trkpt>
      <trkpt lat="44.85138" lon="4.17301">
        <ele>1525.2</ele>
      </trkpt>
      <trkpt lat="44.85108" lon="4.17287">
        <ele>1523.7</ele>
      </trkpt>
      <trkpt lat="44.85097" lon="4.17277">
        <ele>1523</ele>
      </trkpt>
      <trkpt lat="44.85084" lon="4.17283">
        <ele>1522.8</ele>
      </trkpt>
      <trkpt lat="44.85075" lon="4.17285">
        <ele>1516.9</ele>
      </trkpt>
      <trkpt lat="44.85053" lon="4.17281">
        <ele>1515.7</ele>
      </trkpt>
      <trkpt lat="44.85033" lon="4.17293">
        <ele>1514.4</ele>
      </trkpt>
      <trkpt lat="44.85019" lon="4.17284">
        <ele>1513.5</ele>
      </trkpt>
      <trkpt lat="44.85013" lon="4.17285">
        <ele>1513.2</ele>
      </trkpt>
      <trkpt lat="44.85012" lon="4.17294">
        <ele>1513.3</ele>
      </trkpt>
      <trkpt lat="44.85006" lon="4.17299">
        <ele>1513.1</ele>
      </trkpt>
      <trkpt lat="44.85003" lon="4.17291">
        <ele>1513</ele>
        <extensions>
          <visugpx:TrkExtension xmlns:visugpx="https://www.visugpx.com/editgpx/">
            <visugpx:node>22</visugpx:node>
            </visugpx:TrkExtension>
        </extensions>
      </trkpt>
      <trkpt lat="44.84971" lon="4.17235">
        <ele>1505</ele>
      </trkpt>
      <trkpt lat="44.84939" lon="4.17163">
        <ele>1503</ele>
      </trkpt>
      <trkpt lat="44.84901" lon="4.17053">
        <ele>1496</ele>
      </trkpt>
      <trkpt lat="44.84865" lon="4.16945">
        <ele>1490</ele>
      </trkpt>
      <trkpt lat="44.84831" lon="4.16885">
        <ele>1484</ele>
      </trkpt>
      <trkpt lat="44.84791" lon="4.16814">
        <ele>1481</ele>
        <time>2020-09-03T11:43:17Z</time>
      </trkpt>
      <trkpt lat="44.84772" lon="4.16791">
        <ele>1479</ele>
        <time>2020-09-03T11:43:50Z</time>
      </trkpt>
      <trkpt lat="44.84768" lon="4.16789">
        <ele>1479</ele>
        <time>2020-09-03T11:43:56Z</time>
      </trkpt>
      <trkpt lat="44.84763" lon="4.1678">
        <ele>1478</ele>
        <time>2020-09-03T11:44:07Z</time>
      </trkpt>
      <trkpt lat="44.84756" lon="4.16772">
        <ele>1478</ele>
        <time>2020-09-03T11:44:19Z</time>
      </trkpt>
      <trkpt lat="44.84754" lon="4.16773">
        <ele>1478</ele>
        <time>2020-09-03T11:44:21Z</time>
      </trkpt>
      <trkpt lat="44.8473" lon="4.16857">
        <ele>1478</ele>
        <time>2020-09-03T11:45:47Z</time>
      </trkpt>
      <trkpt lat="44.84725" lon="4.16868">
        <ele>1479</ele>
        <time>2020-09-03T11:45:59Z</time>
      </trkpt>
      <trkpt lat="44.84726" lon="4.1688">
        <ele>1479</ele>
        <time>2020-09-03T11:46:11Z</time>
      </trkpt>
      <trkpt lat="44.84722" lon="4.16888">
        <ele>1479</ele>
        <time>2020-09-03T11:46:20Z</time>
      </trkpt>
      <trkpt lat="44.84721" lon="4.16901">
        <ele>1480</ele>
        <time>2020-09-03T11:46:33Z</time>
      </trkpt>
      <trkpt lat="44.84728" lon="4.16923">
        <ele>1481</ele>
        <time>2020-09-03T11:46:55Z</time>
      </trkpt>
      <trkpt lat="44.84727" lon="4.16931">
        <ele>1481</ele>
        <time>2020-09-03T11:47:03Z</time>
      </trkpt>
      <trkpt lat="44.84719" lon="4.16963">
        <ele>1481</ele>
        <time>2020-09-03T11:47:35Z</time>
      </trkpt>
      <trkpt lat="44.84716" lon="4.16967">
        <ele>1481</ele>
        <time>2020-09-03T11:47:41Z</time>
      </trkpt>
      <trkpt lat="44.84714" lon="4.16986">
        <ele>1481</ele>
        <time>2020-09-03T11:47:59Z</time>
      </trkpt>
      <trkpt lat="44.847" lon="4.17021">
        <ele>1479</ele>
        <time>2020-09-03T11:48:37Z</time>
      </trkpt>
      <trkpt lat="44.84686" lon="4.17077">
        <ele>1479</ele>
        <time>2020-09-03T11:49:33Z</time>
      </trkpt>
      <trkpt lat="44.84687" lon="4.17086">
        <ele>1479</ele>
        <time>2020-09-03T11:49:42Z</time>
      </trkpt>
      <trkpt lat="44.84683" lon="4.17113">
        <ele>1478</ele>
        <time>2020-09-03T11:50:08Z</time>
      </trkpt>
      <trkpt lat="44.84677" lon="4.17127">
        <ele>1478</ele>
        <time>2020-09-03T11:50:23Z</time>
      </trkpt>
      <trkpt lat="44.84676" lon="4.17154">
        <ele>1478</ele>
        <time>2020-09-03T11:50:49Z</time>
      </trkpt>
      <trkpt lat="44.84655" lon="4.17169">
        <ele>1476</ele>
        <time>2020-09-03T11:51:20Z</time>
      </trkpt>
      <trkpt lat="44.84649" lon="4.17188">
        <ele>1476</ele>
        <time>2020-09-03T11:51:40Z</time>
      </trkpt>
      <trkpt lat="44.84653" lon="4.17196">
        <ele>1477</ele>
        <time>2020-09-03T11:51:49Z</time>
      </trkpt>
      <trkpt lat="44.84647" lon="4.17207">
        <ele>1477</ele>
        <time>2020-09-03T11:52:02Z</time>
      </trkpt>
      <trkpt lat="44.84648" lon="4.17212">
        <ele>1477</ele>
        <time>2020-09-03T11:52:07Z</time>
      </trkpt>
      <trkpt lat="44.84644" lon="4.17227">
        <ele>1478</ele>
        <time>2020-09-03T11:52:22Z</time>
      </trkpt>
      <trkpt lat="44.84648" lon="4.17234">
        <ele>1478</ele>
        <time>2020-09-03T11:52:31Z</time>
      </trkpt>
      <trkpt lat="44.84648" lon="4.17239">
        <ele>1478</ele>
        <time>2020-09-03T11:52:36Z</time>
      </trkpt>
      <trkpt lat="44.84658" lon="4.17252">
        <ele>1479</ele>
        <time>2020-09-03T11:52:54Z</time>
      </trkpt>
      <trkpt lat="44.84668" lon="4.17275">
        <ele>1481</ele>
        <time>2020-09-03T11:53:19Z</time>
      </trkpt>
      <trkpt lat="44.8467" lon="4.17289">
        <ele>1481</ele>
        <time>2020-09-03T11:53:33Z</time>
      </trkpt>
      <trkpt lat="44.84673" lon="4.1729">
        <ele>1481</ele>
        <time>2020-09-03T11:53:37Z</time>
      </trkpt>
      <trkpt lat="44.84679" lon="4.17303">
        <ele>1482</ele>
        <time>2020-09-03T11:53:52Z</time>
      </trkpt>
      <trkpt lat="44.84688" lon="4.17314">
        <ele>1482</ele>
        <time>2020-09-03T11:54:07Z</time>
      </trkpt>
      <trkpt lat="44.84694" lon="4.1733">
        <ele>1483</ele>
        <time>2020-09-03T11:54:25Z</time>
      </trkpt>
      <trkpt lat="44.84705" lon="4.17331">
        <ele>1484</ele>
        <time>2020-09-03T11:54:39Z</time>
      </trkpt>
      <trkpt lat="44.84722" lon="4.17344">
        <ele>1485</ele>
        <time>2020-09-03T11:55:05Z</time>
      </trkpt>
      <trkpt lat="44.84733" lon="4.17344">
        <ele>1486</ele>
        <time>2020-09-03T11:55:20Z</time>
      </trkpt>
      <trkpt lat="44.84742" lon="4.17353">
        <ele>1487</ele>
        <time>2020-09-03T11:55:34Z</time>
      </trkpt>
      <trkpt lat="44.84757" lon="4.17379">
        <ele>1489</ele>
        <time>2020-09-03T11:56:06Z</time>
      </trkpt>
      <trkpt lat="44.84758" lon="4.17394">
        <ele>1489</ele>
        <time>2020-09-03T11:56:20Z</time>
      </trkpt>
      <trkpt lat="44.84765" lon="4.17409">
        <ele>1491</ele>
        <time>2020-09-03T11:56:37Z</time>
      </trkpt>
      <trkpt lat="44.8477" lon="4.17414">
        <ele>1491</ele>
        <time>2020-09-03T11:56:46Z</time>
      </trkpt>
      <trkpt lat="44.84776" lon="4.17437">
        <ele>1493</ele>
        <time>2020-09-03T11:57:09Z</time>
      </trkpt>
      <trkpt lat="44.84785" lon="4.17446">
        <ele>1493</ele>
        <time>2020-09-03T11:57:24Z</time>
      </trkpt>
      <trkpt lat="44.84795" lon="4.17469">
        <ele>1494</ele>
        <time>2020-09-03T11:57:49Z</time>
      </trkpt>
      <trkpt lat="44.84801" lon="4.17474">
        <ele>1495</ele>
        <time>2020-09-03T11:57:58Z</time>
      </trkpt>
      <trkpt lat="44.84811" lon="4.17497">
        <ele>1495</ele>
        <time>2020-09-03T11:58:24Z</time>
      </trkpt>
      <trkpt lat="44.84829" lon="4.17513">
        <ele>1496</ele>
        <time>2020-09-03T11:58:52Z</time>
      </trkpt>
      <trkpt lat="44.84837" lon="4.17528">
        <ele>1496</ele>
        <time>2020-09-03T11:59:10Z</time>
      </trkpt>
      <trkpt lat="44.84849" lon="4.17534">
        <ele>1496</ele>
        <time>2020-09-03T11:59:27Z</time>
      </trkpt>
      <trkpt lat="44.84858" lon="4.17544">
        <ele>1496</ele>
        <time>2020-09-03T11:59:42Z</time>
      </trkpt>
      <trkpt lat="44.84861" lon="4.17564">
        <ele>1496</ele>
        <time>2020-09-03T12:00:02Z</time>
      </trkpt>
      <trkpt lat="44.84874" lon="4.17586">
        <ele>1496</ele>
        <time>2020-09-03T12:00:29Z</time>
      </trkpt>
      <trkpt lat="44.8488" lon="4.17605">
        <ele>1495</ele>
        <time>2020-09-03T12:00:48Z</time>
      </trkpt>
      <trkpt lat="44.84887" lon="4.17612">
        <ele>1495</ele>
        <time>2020-09-03T12:01:00Z</time>
      </trkpt>
      <trkpt lat="44.84888" lon="4.17619">
        <ele>1495</ele>
        <time>2020-09-03T12:01:07Z</time>
      </trkpt>
      <trkpt lat="44.84902" lon="4.17634">
        <ele>1495</ele>
        <time>2020-09-03T12:01:30Z</time>
      </trkpt>
      <trkpt lat="44.84909" lon="4.17637">
        <ele>1495</ele>
        <time>2020-09-03T12:01:40Z</time>
      </trkpt>
      <trkpt lat="44.84947" lon="4.17666">
        <ele>1494</ele>
        <time>2020-09-03T12:02:38Z</time>
      </trkpt>
      <trkpt lat="44.84952" lon="4.17676">
        <ele>1494</ele>
        <time>2020-09-03T12:02:49Z</time>
      </trkpt>
      <trkpt lat="44.84961" lon="4.17685">
        <ele>1493</ele>
        <time>2020-09-03T12:03:04Z</time>
      </trkpt>
      <trkpt lat="44.84969" lon="4.17698">
        <ele>1492</ele>
        <time>2020-09-03T12:03:20Z</time>
      </trkpt>
      <trkpt lat="44.84982" lon="4.17711">
        <ele>1491</ele>
        <time>2020-09-03T12:03:41Z</time>
      </trkpt>
      <trkpt lat="44.85003" lon="4.17721">
        <ele>1490</ele>
        <time>2020-09-03T12:04:11Z</time>
      </trkpt>
      <trkpt lat="44.85034" lon="4.17755">
        <ele>1488</ele>
        <time>2020-09-03T12:05:03Z</time>
      </trkpt>
      <trkpt lat="44.85071" lon="4.17783">
        <ele>1488</ele>
        <time>2020-09-03T12:05:59Z</time>
      </trkpt>
      <trkpt lat="44.85081" lon="4.17799">
        <ele>1487</ele>
        <time>2020-09-03T12:06:20Z</time>
      </trkpt>
      <trkpt lat="44.85087" lon="4.17817">
        <ele>1485</ele>
        <time>2020-09-03T12:06:38Z</time>
      </trkpt>
      <trkpt lat="44.85096" lon="4.17824">
        <ele>1485</ele>
        <time>2020-09-03T12:06:52Z</time>
      </trkpt>
      <trkpt lat="44.85112" lon="4.17831">
        <ele>1486</ele>
        <time>2020-09-03T12:07:14Z</time>
      </trkpt>
      <trkpt lat="44.85114" lon="4.17841">
        <ele>1485</ele>
        <time>2020-09-03T12:07:24Z</time>
      </trkpt>
      <trkpt lat="44.85123" lon="4.17852">
        <ele>1485</ele>
        <time>2020-09-03T12:07:40Z</time>
      </trkpt>
      <trkpt lat="44.85135" lon="4.17855">
        <ele>1486</ele>
        <time>2020-09-03T12:07:56Z</time>
      </trkpt>
      <trkpt lat="44.85141" lon="4.1786">
        <ele>1486</ele>
        <time>2020-09-03T12:08:06Z</time>
      </trkpt>
      <trkpt lat="44.85151" lon="4.17858">
        <ele>1487</ele>
        <time>2020-09-03T12:08:19Z</time>
      </trkpt>
      <trkpt lat="44.85156" lon="4.17862">
        <ele>1487</ele>
        <time>2020-09-03T12:08:27Z</time>
      </trkpt>
      <trkpt lat="44.85161" lon="4.17862">
        <ele>1487</ele>
        <time>2020-09-03T12:08:34Z</time>
      </trkpt>
      <trkpt lat="44.85166" lon="4.17867">
        <ele>1487</ele>
        <time>2020-09-03T12:08:42Z</time>
      </trkpt>
      <trkpt lat="44.85185" lon="4.17872">
        <ele>1488</ele>
        <time>2020-09-03T12:09:08Z</time>
      </trkpt>
      <trkpt lat="44.85193" lon="4.17883">
        <ele>1487</ele>
        <time>2020-09-03T12:09:22Z</time>
      </trkpt>
      <trkpt lat="44.85197" lon="4.17882">
        <ele>1487</ele>
        <time>2020-09-03T12:09:28Z</time>
      </trkpt>
      <trkpt lat="44.85211" lon="4.17891">
        <ele>1487</ele>
        <time>2020-09-03T12:09:48Z</time>
      </trkpt>
      <trkpt lat="44.85224" lon="4.17893">
        <ele>1487</ele>
        <time>2020-09-03T12:10:06Z</time>
      </trkpt>
      <trkpt lat="44.85238" lon="4.17908">
        <ele>1486</ele>
        <time>2020-09-03T12:10:29Z</time>
      </trkpt>
      <trkpt lat="44.85256" lon="4.17913">
        <ele>1487</ele>
        <time>2020-09-03T12:10:54Z</time>
      </trkpt>
      <trkpt lat="44.85261" lon="4.1792">
        <ele>1486</ele>
        <time>2020-09-03T12:11:03Z</time>
      </trkpt>
      <trkpt lat="44.85271" lon="4.17927">
        <ele>1487</ele>
        <time>2020-09-03T12:11:18Z</time>
      </trkpt>
      <trkpt lat="44.85283" lon="4.17928">
        <ele>1487</ele>
        <time>2020-09-03T12:11:34Z</time>
      </trkpt>
      <trkpt lat="44.85298" lon="4.17937">
        <ele>1487</ele>
        <time>2020-09-03T12:11:56Z</time>
      </trkpt>
      <trkpt lat="44.85309" lon="4.17939">
        <ele>1488</ele>
        <time>2020-09-03T12:12:11Z</time>
      </trkpt>
      <trkpt lat="44.85329" lon="4.17948">
        <ele>1488</ele>
        <time>2020-09-03T12:12:39Z</time>
      </trkpt>
      <trkpt lat="44.85341" lon="4.17956">
        <ele>1488</ele>
        <time>2020-09-03T12:12:56Z</time>
      </trkpt>
      <trkpt lat="44.85357" lon="4.17961">
        <ele>1487</ele>
        <time>2020-09-03T12:13:18Z</time>
      </trkpt>
      <trkpt lat="44.85362" lon="4.1796">
        <ele>1487</ele>
        <time>2020-09-03T12:13:25Z</time>
      </trkpt>
      <trkpt lat="44.85374" lon="4.17969">
        <ele>1486</ele>
        <time>2020-09-03T12:13:43Z</time>
      </trkpt>
      <trkpt lat="44.854" lon="4.17977">
        <ele>1485</ele>
        <time>2020-09-03T12:14:19Z</time>
      </trkpt>
      <trkpt lat="44.85403" lon="4.17975">
        <ele>1485</ele>
        <time>2020-09-03T12:14:23Z</time>
      </trkpt>
      <trkpt lat="44.85425" lon="4.17975">
        <ele>1484</ele>
        <time>2020-09-03T12:14:52Z</time>
      </trkpt>
      <trkpt lat="44.85451" lon="4.18003">
        <ele>1481</ele>
        <time>2020-09-03T12:15:36Z</time>
      </trkpt>
      <trkpt lat="44.85462" lon="4.18006">
        <ele>1480</ele>
        <time>2020-09-03T12:15:51Z</time>
      </trkpt>
      <trkpt lat="44.85484" lon="4.18021">
        <ele>1478</ele>
        <time>2020-09-03T12:16:24Z</time>
      </trkpt>
      <trkpt lat="44.85489" lon="4.18033">
        <ele>1477</ele>
        <time>2020-09-03T12:16:37Z</time>
      </trkpt>
      <trkpt lat="44.85498" lon="4.18045">
        <ele>1475</ele>
        <time>2020-09-03T12:16:53Z</time>
      </trkpt>
      <trkpt lat="44.85535" lon="4.18056">
        <ele>1473</ele>
        <time>2020-09-03T12:17:44Z</time>
      </trkpt>
      <trkpt lat="44.85555" lon="4.18064">
        <ele>1472</ele>
        <time>2020-09-03T12:18:12Z</time>
      </trkpt>
      <trkpt lat="44.85565" lon="4.18071">
        <ele>1471</ele>
        <time>2020-09-03T12:18:26Z</time>
      </trkpt>
      <trkpt lat="44.85587" lon="4.1807">
        <ele>1471</ele>
        <time>2020-09-03T12:18:56Z</time>
      </trkpt>
      <trkpt lat="44.8563" lon="4.18083">
        <ele>1469</ele>
        <time>2020-09-03T12:19:54Z</time>
      </trkpt>
      <trkpt lat="44.85652" lon="4.18086">
        <ele>1468</ele>
        <time>2020-09-03T12:20:24Z</time>
      </trkpt>
      <trkpt lat="44.8566" lon="4.18092">
        <ele>1467</ele>
        <time>2020-09-03T12:20:36Z</time>
      </trkpt>
      <trkpt lat="44.85686" lon="4.18104">
        <ele>1466</ele>
        <time>2020-09-03T12:21:13Z</time>
      </trkpt>
      <trkpt lat="44.85718" lon="4.18112">
        <ele>1465</ele>
        <time>2020-09-03T12:21:56Z</time>
      </trkpt>
      <trkpt lat="44.85736" lon="4.1812">
        <ele>1465</ele>
        <time>2020-09-03T12:22:21Z</time>
      </trkpt>
      <trkpt lat="44.85763" lon="4.18125">
        <ele>1465</ele>
        <time>2020-09-03T12:22:57Z</time>
      </trkpt>
      <trkpt lat="44.85798" lon="4.18137">
        <ele>1468</ele>
        <time>2020-09-03T12:23:46Z</time>
      </trkpt>
      <trkpt lat="44.85816" lon="4.1814">
        <ele>1469</ele>
        <time>2020-09-03T12:24:10Z</time>
      </trkpt>
      <trkpt lat="44.85894" lon="4.18169">
        <ele>1471</ele>
        <time>2020-09-03T12:25:57Z</time>
      </trkpt>
      <trkpt lat="44.85928" lon="4.18176">
        <ele>1472</ele>
        <time>2020-09-03T12:26:43Z</time>
      </trkpt>
      <trkpt lat="44.8595" lon="4.18184">
        <ele>1472</ele>
        <time>2020-09-03T12:27:14Z</time>
      </trkpt>
      <trkpt lat="44.85951" lon="4.1819">
        <ele>1472</ele>
        <time>2020-09-03T12:27:19Z</time>
      </trkpt>
      <trkpt lat="44.85956" lon="4.1819">
        <ele>1472</ele>
        <time>2020-09-03T12:27:26Z</time>
      </trkpt>
      <trkpt lat="44.85968" lon="4.18182">
        <ele>1471</ele>
        <time>2020-09-03T12:27:44Z</time>
      </trkpt>
      <trkpt lat="44.85984" lon="4.18179">
        <ele>1471</ele>
        <time>2020-09-03T12:28:05Z</time>
      </trkpt>
      <trkpt lat="44.86035" lon="4.18184">
        <ele>1471</ele>
        <time>2020-09-03T12:29:14Z</time>
      </trkpt>
      <trkpt lat="44.86042" lon="4.18186">
        <ele>1471</ele>
        <time>2020-09-03T12:29:23Z</time>
      </trkpt>
      <trkpt lat="44.86044" lon="4.18191">
        <ele>1471</ele>
        <time>2020-09-03T12:29:28Z</time>
      </trkpt>
      <trkpt lat="44.86056" lon="4.18194">
        <ele>1470</ele>
        <time>2020-09-03T12:29:45Z</time>
      </trkpt>
      <trkpt lat="44.86078" lon="4.18206">
        <ele>1470</ele>
        <time>2020-09-03T12:30:16Z</time>
      </trkpt>
      <trkpt lat="44.86119" lon="4.18223">
        <ele>1470</ele>
        <time>2020-09-03T12:31:13Z</time>
      </trkpt>
      <trkpt lat="44.8614" lon="4.18246">
        <ele>1469</ele>
        <time>2020-09-03T12:31:49Z</time>
      </trkpt>
      <trkpt lat="44.86145" lon="4.18248">
        <ele>1469</ele>
        <time>2020-09-03T12:31:56Z</time>
      </trkpt>
      <trkpt lat="44.86155" lon="4.1826">
        <ele>1469</ele>
        <time>2020-09-03T12:32:13Z</time>
      </trkpt>
      <trkpt lat="44.86158" lon="4.18268">
        <ele>1468</ele>
        <time>2020-09-03T12:32:22Z</time>
      </trkpt>
      <trkpt lat="44.86181" lon="4.18284">
        <ele>1467</ele>
        <time>2020-09-03T12:32:56Z</time>
      </trkpt>
      <trkpt lat="44.86186" lon="4.18292">
        <ele>1467</ele>
        <time>2020-09-03T12:33:06Z</time>
      </trkpt>
      <trkpt lat="44.86196" lon="4.18298">
        <ele>1467</ele>
        <time>2020-09-03T12:33:21Z</time>
      </trkpt>
      <trkpt lat="44.86235" lon="4.18315">
        <ele>1466</ele>
        <time>2020-09-03T12:34:15Z</time>
      </trkpt>
      <trkpt lat="44.86239" lon="4.18319">
        <ele>1466</ele>
        <time>2020-09-03T12:34:22Z</time>
      </trkpt>
      <trkpt lat="44.8625" lon="4.18321">
        <ele>1466</ele>
        <time>2020-09-03T12:34:36Z</time>
      </trkpt>
      <trkpt lat="44.86273" lon="4.18333">
        <ele>1465</ele>
        <time>2020-09-03T12:35:09Z</time>
      </trkpt>
      <trkpt lat="44.86283" lon="4.18335">
        <ele>1465</ele>
        <time>2020-09-03T12:35:23Z</time>
      </trkpt>
      <trkpt lat="44.86298" lon="4.18346">
        <ele>1465</ele>
        <time>2020-09-03T12:35:45Z</time>
      </trkpt>
      <trkpt lat="44.86306" lon="4.18348">
        <ele>1465</ele>
        <time>2020-09-03T12:35:56Z</time>
      </trkpt>
      <trkpt lat="44.86344" lon="4.18369">
        <ele>1466</ele>
        <time>2020-09-03T12:36:50Z</time>
      </trkpt>
      <trkpt lat="44.86364" lon="4.18371">
        <ele>1465</ele>
        <time>2020-09-03T12:37:17Z</time>
      </trkpt>
      <trkpt lat="44.86371" lon="4.1838">
        <ele>1466</ele>
        <time>2020-09-03T12:37:30Z</time>
      </trkpt>
      <trkpt lat="44.86381" lon="4.18386">
        <ele>1466</ele>
        <time>2020-09-03T12:37:44Z</time>
      </trkpt>
      <trkpt lat="44.86395" lon="4.1839">
        <ele>1466</ele>
        <time>2020-09-03T12:38:03Z</time>
      </trkpt>
      <trkpt lat="44.86415" lon="4.18402">
        <ele>1467</ele>
        <time>2020-09-03T12:38:32Z</time>
      </trkpt>
      <trkpt lat="44.86425" lon="4.18402">
        <ele>1467</ele>
        <time>2020-09-03T12:38:46Z</time>
      </trkpt>
      <trkpt lat="44.8645" lon="4.18414">
        <ele>1468</ele>
        <time>2020-09-03T12:39:21Z</time>
      </trkpt>
      <trkpt lat="44.86458" lon="4.18415">
        <ele>1468</ele>
        <time>2020-09-03T12:39:32Z</time>
      </trkpt>
      <trkpt lat="44.86471" lon="4.18426">
        <ele>1469</ele>
        <time>2020-09-03T12:39:52Z</time>
      </trkpt>
      <trkpt lat="44.86478" lon="4.18428">
        <ele>1469</ele>
        <time>2020-09-03T12:40:01Z</time>
      </trkpt>
      <trkpt lat="44.86494" lon="4.18443">
        <ele>1470</ele>
        <time>2020-09-03T12:40:27Z</time>
      </trkpt>
      <trkpt lat="44.86508" lon="4.18451">
        <ele>1470</ele>
        <time>2020-09-03T12:40:47Z</time>
      </trkpt>
      <trkpt lat="44.8654" lon="4.18484">
        <ele>1470</ele>
        <time>2020-09-03T12:41:40Z</time>
      </trkpt>
      <trkpt lat="44.86581" lon="4.18515">
        <ele>1470</ele>
        <time>2020-09-03T12:42:42Z</time>
      </trkpt>
      <trkpt lat="44.86584" lon="4.1852">
        <ele>1470</ele>
        <time>2020-09-03T12:42:48Z</time>
      </trkpt>
      <trkpt lat="44.86603" lon="4.18535">
        <ele>1468</ele>
        <time>2020-09-03T12:43:17Z</time>
      </trkpt>
      <trkpt lat="44.86608" lon="4.18544">
        <ele>1468</ele>
        <time>2020-09-03T12:43:28Z</time>
      </trkpt>
      <trkpt lat="44.86615" lon="4.1855">
        <ele>1467</ele>
        <time>2020-09-03T12:43:39Z</time>
      </trkpt>
      <trkpt lat="44.86616" lon="4.18547">
        <ele>1467</ele>
        <time>2020-09-03T12:43:42Z</time>
      </trkpt>
      <trkpt lat="44.8662" lon="4.18551">
        <ele>1466</ele>
        <time>2020-09-03T12:43:49Z</time>
      </trkpt>
      <trkpt lat="44.86631" lon="4.18581">
        <ele>1467</ele>
        <time>2020-09-03T12:44:21Z</time>
      </trkpt>
      <trkpt lat="44.8664" lon="4.18591">
        <ele>1467</ele>
        <time>2020-09-03T12:44:36Z</time>
      </trkpt>
      <trkpt lat="44.86673" lon="4.18614">
        <ele>1465</ele>
        <time>2020-09-03T12:45:25Z</time>
      </trkpt>
      <trkpt lat="44.86679" lon="4.18614">
        <ele>1464</ele>
        <time>2020-09-03T12:45:33Z</time>
      </trkpt>
      <trkpt lat="44.86707" lon="4.18627">
        <ele>1462</ele>
        <time>2020-09-03T12:46:13Z</time>
      </trkpt>
      <trkpt lat="44.86718" lon="4.18628">
        <ele>1461</ele>
        <time>2020-09-03T12:46:27Z</time>
      </trkpt>
      <trkpt lat="44.86727" lon="4.18632">
        <ele>1460</ele>
        <time>2020-09-03T12:46:40Z</time>
      </trkpt>
      <trkpt lat="44.86758" lon="4.18653">
        <ele>1461</ele>
        <time>2020-09-03T12:47:26Z</time>
      </trkpt>
      <trkpt lat="44.86792" lon="4.18663">
        <ele>1462</ele>
        <time>2020-09-03T12:48:12Z</time>
      </trkpt>
      <trkpt lat="44.86798" lon="4.18668">
        <ele>1463</ele>
        <time>2020-09-03T12:48:21Z</time>
      </trkpt>
      <trkpt lat="44.86818" lon="4.18672">
        <ele>1463</ele>
        <time>2020-09-03T12:48:48Z</time>
      </trkpt>
      <trkpt lat="44.86833" lon="4.18667">
        <ele>1462</ele>
        <time>2020-09-03T12:49:09Z</time>
      </trkpt>
      <trkpt lat="44.86841" lon="4.18668">
        <ele>1462</ele>
        <time>2020-09-03T12:49:20Z</time>
      </trkpt>
      <trkpt lat="44.86853" lon="4.18665">
        <ele>1462</ele>
        <time>2020-09-03T12:49:36Z</time>
      </trkpt>
      <trkpt lat="44.86875" lon="4.1865">
        <ele>1460</ele>
        <time>2020-09-03T12:50:09Z</time>
      </trkpt>
      <trkpt lat="44.86909" lon="4.18636">
        <ele>1459</ele>
        <time>2020-09-03T12:50:56Z</time>
      </trkpt>
      <trkpt lat="44.8692" lon="4.18634">
        <ele>1458</ele>
        <time>2020-09-03T12:51:11Z</time>
      </trkpt>
      <trkpt lat="44.86952" lon="4.18636">
        <ele>1458</ele>
        <time>2020-09-03T12:51:53Z</time>
      </trkpt>
      <trkpt lat="44.8698" lon="4.18654">
        <ele>1460</ele>
        <time>2020-09-03T12:52:34Z</time>
      </trkpt>
      <trkpt lat="44.87038" lon="4.18676">
        <ele>1458</ele>
        <time>2020-09-03T12:53:55Z</time>
      </trkpt>
      <trkpt lat="44.87048" lon="4.18688">
        <ele>1458</ele>
        <time>2020-09-03T12:54:12Z</time>
      </trkpt>
      <trkpt lat="44.87054" lon="4.1869">
        <ele>1457</ele>
        <time>2020-09-03T12:54:20Z</time>
      </trkpt>
      <trkpt lat="44.87078" lon="4.1871">
        <ele>1457</ele>
        <time>2020-09-03T12:54:57Z</time>
      </trkpt>
      <trkpt lat="44.87104" lon="4.1872">
        <ele>1454</ele>
        <time>2020-09-03T12:55:33Z</time>
      </trkpt>
      <trkpt lat="44.87107" lon="4.18724">
        <ele>1454</ele>
        <time>2020-09-03T12:55:39Z</time>
      </trkpt>
      <trkpt lat="44.8712" lon="4.1873">
        <ele>1453</ele>
        <time>2020-09-03T12:55:57Z</time>
      </trkpt>
      <trkpt lat="44.87133" lon="4.18733">
        <ele>1452</ele>
        <time>2020-09-03T12:56:15Z</time>
      </trkpt>
      <trkpt lat="44.87155" lon="4.18745">
        <ele>1451</ele>
        <time>2020-09-03T12:56:46Z</time>
      </trkpt>
      <trkpt lat="44.87156" lon="4.18748">
        <ele>1451</ele>
        <time>2020-09-03T12:56:49Z</time>
      </trkpt>
      <trkpt lat="44.87167" lon="4.18747">
        <ele>1449</ele>
        <time>2020-09-03T12:57:04Z</time>
      </trkpt>
      <trkpt lat="44.8717" lon="4.18749">
        <ele>1450</ele>
        <time>2020-09-03T12:57:09Z</time>
      </trkpt>
      <trkpt lat="44.87182" lon="4.18744">
        <ele>1449</ele>
        <time>2020-09-03T12:57:25Z</time>
      </trkpt>
      <trkpt lat="44.87201" lon="4.18744">
        <ele>1448</ele>
        <time>2020-09-03T12:57:51Z</time>
      </trkpt>
      <trkpt lat="44.87207" lon="4.18748">
        <ele>1449</ele>
        <time>2020-09-03T12:57:59Z</time>
      </trkpt>
      <trkpt lat="44.87228" lon="4.18746">
        <ele>1448</ele>
        <time>2020-09-03T12:58:28Z</time>
      </trkpt>
      <trkpt lat="44.87244" lon="4.18753">
        <ele>1449</ele>
        <time>2020-09-03T12:58:50Z</time>
      </trkpt>
      <trkpt lat="44.8728" lon="4.18745">
        <ele>1448</ele>
        <time>2020-09-03T12:59:39Z</time>
      </trkpt>
      <trkpt lat="44.87308" lon="4.18697">
        <ele>1441</ele>
        <time>2020-09-03T13:00:37Z</time>
      </trkpt>
      <trkpt lat="44.87341" lon="4.18668">
        <ele>1436</ele>
        <time>2020-09-03T13:01:29Z</time>
      </trkpt>
      <trkpt lat="44.87374" lon="4.18646">
        <ele>1432</ele>
        <time>2020-09-03T13:02:18Z</time>
      </trkpt>
      <trkpt lat="44.87396" lon="4.18621">
        <ele>1426</ele>
        <time>2020-09-03T13:02:56Z</time>
      </trkpt>
      <trkpt lat="44.87406" lon="4.18615">
        <ele>1425</ele>
        <time>2020-09-03T13:03:10Z</time>
      </trkpt>
      <trkpt lat="44.87415" lon="4.18614">
        <ele>1425</ele>
        <time>2020-09-03T13:03:22Z</time>
      </trkpt>
      <trkpt lat="44.87426" lon="4.18619">
        <ele>1425</ele>
        <time>2020-09-03T13:03:38Z</time>
      </trkpt>
      <trkpt lat="44.87432" lon="4.18617">
        <ele>1424</ele>
        <time>2020-09-03T13:03:46Z</time>
      </trkpt>
      <trkpt lat="44.87437" lon="4.18619">
        <ele>1424</ele>
        <time>2020-09-03T13:03:53Z</time>
      </trkpt>
      <trkpt lat="44.87455" lon="4.18605">
        <ele>1420</ele>
        <time>2020-09-03T13:04:20Z</time>
      </trkpt>
      <trkpt lat="44.87462" lon="4.18603">
        <ele>1419</ele>
        <time>2020-09-03T13:04:30Z</time>
      </trkpt>
      <trkpt lat="44.87471" lon="4.18604">
        <ele>1418</ele>
        <time>2020-09-03T13:04:42Z</time>
      </trkpt>
      <trkpt lat="44.87485" lon="4.18598">
        <ele>1416</ele>
        <time>2020-09-03T13:05:01Z</time>
      </trkpt>
      <trkpt lat="44.87491" lon="4.186">
        <ele>1416</ele>
        <time>2020-09-03T13:05:09Z</time>
      </trkpt>
      <trkpt lat="44.87501" lon="4.18597">
        <ele>1414</ele>
        <time>2020-09-03T13:05:23Z</time>
      </trkpt>
      <trkpt lat="44.87525" lon="4.18605">
        <ele>1412</ele>
        <time>2020-09-03T13:05:56Z</time>
      </trkpt>
      <trkpt lat="44.87558" lon="4.18598">
        <ele>1408</ele>
        <time>2020-09-03T13:06:41Z</time>
      </trkpt>
      <trkpt lat="44.87568" lon="4.18585">
        <ele>1405</ele>
        <time>2020-09-03T13:06:59Z</time>
      </trkpt>
      <trkpt lat="44.8759" lon="4.18572">
        <ele>1401</ele>
        <time>2020-09-03T13:07:31Z</time>
      </trkpt>
      <trkpt lat="44.87609" lon="4.18549">
        <ele>1397</ele>
        <time>2020-09-03T13:08:04Z</time>
      </trkpt>
      <trkpt lat="44.87611" lon="4.1854">
        <ele>1396</ele>
        <time>2020-09-03T13:08:13Z</time>
      </trkpt>
      <trkpt lat="44.87663" lon="4.18505">
        <ele>1389</ele>
        <time>2020-09-03T13:09:30Z</time>
      </trkpt>
      <trkpt lat="44.87682" lon="4.18488">
        <ele>1386</ele>
        <time>2020-09-03T13:10:00Z</time>
      </trkpt>
      <trkpt lat="44.87726" lon="4.18461">
        <ele>1384</ele>
        <time>2020-09-03T13:11:04Z</time>
      </trkpt>
      <trkpt lat="44.8776" lon="4.1843">
        <ele>1384</ele>
        <time>2020-09-03T13:11:58Z</time>
      </trkpt>
      <trkpt lat="44.87768" lon="4.18419">
        <ele>1384</ele>
        <time>2020-09-03T13:12:13Z</time>
      </trkpt>
      <trkpt lat="44.87805" lon="4.18397">
        <ele>1384</ele>
        <time>2020-09-03T13:13:06Z</time>
      </trkpt>
      <trkpt lat="44.87811" lon="4.18392">
        <ele>1385</ele>
        <time>2020-09-03T13:13:16Z</time>
      </trkpt>
      <trkpt lat="44.87814" lon="4.18385">
        <ele>1385</ele>
        <time>2020-09-03T13:13:23Z</time>
        <extensions>
          <visugpx:TrkExtension xmlns:visugpx="https://www.visugpx.com/editgpx/">
            <visugpx:node>24</visugpx:node>
            </visugpx:TrkExtension>
        </extensions>
      </trkpt>
    </trkseg>
  </trk>
</gpx>